Observation data for Tarzan on 06/20/2019      Previous  Date       Current Mesonet Observations  Soil Data  Daily Summary Page  Observations in Plain Language
KTA1 200500Z 11006KT 24/15 A2983 RMK A01 T02400148  RH  056%=      5-min Rain = 0
KTA1 200501Z 11007KT 24/15 A2983 RMK A01 T02390147  RH  056%=      5-min Rain = 0
KTA1 200502Z 11007KT 24/15 A2982 RMK A01 T02390147  RH  056%=      5-min Rain = 0
KTA1 200503Z 11007KT 24/15 A2983 RMK A01 T02380147  RH  057%=      5-min Rain = 0
KTA1 200504Z 10007KT 24/15 A2982 RMK A01 T02370147  RH  057%=      5-min Rain = 0
KTA1 200505Z 10007KT 24/15 A2982 RMK A01 T02370146  RH  057%=      5-min Rain = 0
KTA1 200506Z 10007KT 24/15 A2982 RMK A01 T02360146  RH  057%=      5-min Rain = 0
KTA1 200507Z 10007KT 24/15 A2982 RMK A01 T02360146  RH  057%=      5-min Rain = 0
KTA1 200508Z 10007KT 24/15 A2982 RMK A01 T02360145  RH  057%=      5-min Rain = 0
KTA1 200509Z 10006KT 24/15 A2982 RMK A01 T02360145  RH  057%=      5-min Rain = 0
KTA1 200510Z 10006KT 24/15 A2982 RMK A01 T02360145  RH  057%=      5-min Rain = 0
KTA1 200511Z 10006KT 24/15 A2982 RMK A01 T02360145  RH  057%=      5-min Rain = 0
KTA1 200512Z 11006KT 24/15 A2982 RMK A01 T02350145  RH  057%=      5-min Rain = 0
KTA1 200513Z 11006KT 24/14 A2982 RMK A01 T02350144  RH  057%=      5-min Rain = 0
KTA1 200514Z 11006KT 24/14 A2982 RMK A01 T02360144  RH  056%=      5-min Rain = 0
KTA1 200515Z 12006KT 24/14 A2982 RMK A01 T02360144  RH  056%=      5-min Rain = 0
KTA1 200516Z 12007KT 24/14 A2982 RMK A01 T02360143  RH  056%=      5-min Rain = 0
KTA1 200517Z 12006KT 24/14 A2982 RMK A01 T02380141  RH  054%=      5-min Rain = 0
KTA1 200518Z 12005KT 24/14 A2982 RMK A01 T02400140  RH  054%=      5-min Rain = 0
KTA1 200519Z 12006KT 24/14 A2982 RMK A01 T02410140  RH  053%=      5-min Rain = 0
KTA1 200520Z 12005KT 24/14 A2982 RMK A01 T02420139  RH  053%=      5-min Rain = 0
KTA1 200521Z 12005KT 24/14 A2982 RMK A01 T02430140  RH  052%=      5-min Rain = 0
KTA1 200522Z 12005KT 24/14 A2982 RMK A01 T02430139  RH  052%=      5-min Rain = 0
KTA1 200523Z 12005KT 24/14 A2982 RMK A01 T02430139  RH  052%=      5-min Rain = 0
KTA1 200524Z 12006KT 24/14 A2982 RMK A01 T02420138  RH  052%=      5-min Rain = 0
KTA1 200525Z 12006KT 24/14 A2982 RMK A01 T02420138  RH  052%=      5-min Rain = 0
KTA1 200526Z 12006KT 24/14 A2982 RMK A01 T02410137  RH  052%=      5-min Rain = 0
KTA1 200527Z 12006KT 24/14 A2982 RMK A01 T02410137  RH  052%=      5-min Rain = 0
KTA1 200528Z 12005KT 24/14 A2982 RMK A01 T02400137  RH  052%=      5-min Rain = 0
KTA1 200529Z 11006KT 24/14 A2982 RMK A01 T02390136  RH  053%=      5-min Rain = 0
KTA1 200530Z 11006KT 24/14 A2982 RMK A01 T02390136  RH  053%=      5-min Rain = 0
KTA1 200531Z 11006KT 24/14 A2982 RMK A01 T02390135  RH  052%=      5-min Rain = 0
KTA1 200532Z 11006KT 24/14 A2982 RMK A01 T02380135  RH  052%=      5-min Rain = 0
KTA1 200533Z 11006KT 24/14 A2982 RMK A01 T02370135  RH  053%=      5-min Rain = 0
KTA1 200534Z 11006KT 24/13 A2982 RMK A01 T02360134  RH  053%=      5-min Rain = 0
KTA1 200535Z 12006KT 24/13 A2982 RMK A01 T02360134  RH  053%=      5-min Rain = 0
KTA1 200536Z 12006KT 24/13 A2983 RMK A01 T02350134  RH  053%=      5-min Rain = 0
KTA1 200537Z 12006KT 24/13 A2983 RMK A01 T02350133  RH  053%=      5-min Rain = 0
KTA1 200538Z 12006KT 24/13 A2983 RMK A01 T02350132  RH  052%=      5-min Rain = 0
KTA1 200539Z 12006KT 24/13 A2983 RMK A01 T02350131  RH  052%=      5-min Rain = 0
KTA1 200540Z 12006KT 24/13 A2983 RMK A01 T02360130  RH  052%=      5-min Rain = 0
KTA1 200541Z 11005KT 24/13 A2983 RMK A01 T02370130  RH  051%=      5-min Rain = 0
KTA1 200542Z 11005KT 24/13 A2983 RMK A01 T02370130  RH  051%=      5-min Rain = 0
KTA1 200543Z 11005KT 24/13 A2983 RMK A01 T02370129  RH  051%=      5-min Rain = 0
KTA1 200544Z 11005KT 24/13 A2983 RMK A01 T02380129  RH  051%=      5-min Rain = 0
KTA1 200545Z 11004KT 24/13 A2983 RMK A01 T02380129  RH  050%=      5-min Rain = 0
KTA1 200546Z 11004KT 24/13 A2983 RMK A01 T02380129  RH  051%=      5-min Rain = 0
KTA1 200547Z 10004KT 24/13 A2983 RMK A01 T02370128  RH  050%=      5-min Rain = 0
KTA1 200548Z 10003KT 24/13 A2983 RMK A01 T02370128  RH  050%=      5-min Rain = 0
KTA1 200549Z 10003KT 24/13 A2983 RMK A01 T02370128  RH  050%=      5-min Rain = 0
KTA1 200550Z 09004KT 24/13 A2983 RMK A01 T02360128  RH  050%=      5-min Rain = 0
KTA1 200551Z 09004KT 24/13 A2983 RMK A01 T02360127  RH  050%=      5-min Rain = 0
KTA1 200552Z 08005KT 24/13 A2983 RMK A01 T02360127  RH  050%=      5-min Rain = 0
KTA1 200553Z 08006KT 24/13 A2983 RMK A01 T02360128  RH  050%=      5-min Rain = 0
KTA1 200554Z 09005KT 24/13 A2983 RMK A01 T02360128  RH  051%=      5-min Rain = 0
KTA1 200555Z 08006KT 24/13 A2984 RMK A01 T02350128  RH  051%=      5-min Rain = 0
KTA1 200556Z 08005KT 24/13 A2984 RMK A01 T02350129  RH  051%=      5-min Rain = 0
KTA1 200557Z 08004KT 23/13 A2984 RMK A01 T02340129  RH  052%=      5-min Rain = 0
KTA1 200558Z 08005KT 23/13 A2984 RMK A01 T02330130  RH  052%=      5-min Rain = 0
KTA1 200559Z 09005KT 23/13 A2984 RMK A01 T02330130  RH  052%=      5-min Rain = 0
KTA1 200600Z 09006KT 23/13 A2984 RMK A01 T02330130  RH  052%=      5-min Rain = 0
KTA1 200601Z 09006KT 23/13 A2984 RMK A01 T02330130  RH  052%=      5-min Rain = 0
KTA1 200602Z 09006KT 23/13 A2984 RMK A01 T02330130  RH  052%=      5-min Rain = 0
KTA1 200603Z 08005KT 23/13 A2984 RMK A01 T02320130  RH  053%=      5-min Rain = 0
KTA1 200604Z 08005KT 23/13 A2984 RMK A01 T02320130  RH  053%=      5-min Rain = 0
KTA1 200605Z 07005KT 23/13 A2984 RMK A01 T02310129  RH  053%=      5-min Rain = 0
KTA1 200606Z 06004KT 23/13 A2984 RMK A01 T02310129  RH  053%=      5-min Rain = 0
KTA1 200607Z 06004KT 23/13 A2984 RMK A01 T02300130  RH  053%=      5-min Rain = 0
KTA1 200608Z 06004KT 23/13 A2984 RMK A01 T02290129  RH  053%=      5-min Rain = 0
KTA1 200609Z 05004KT 23/13 A2984 RMK A01 T02290129  RH  053%=      5-min Rain = 0
KTA1 200610Z 05004KT 23/13 A2984 RMK A01 T02280129  RH  054%=      5-min Rain = 0
KTA1 200611Z 05003KT 23/13 A2984 RMK A01 T02280129  RH  054%=      5-min Rain = 0
KTA1 200612Z 04003KT 23/13 A2984 RMK A01 T02270129  RH  054%=      5-min Rain = 0
KTA1 200613Z 04003KT 23/13 A2984 RMK A01 T02270128  RH  054%=      5-min Rain = 0
KTA1 200614Z 05003KT 23/13 A2984 RMK A01 T02260128  RH  054%=      5-min Rain = 0
KTA1 200615Z 07003KT 23/13 A2983 RMK A01 T02260128  RH  054%=      5-min Rain = 0
KTA1 200616Z 08004KT 23/13 A2983 RMK A01 T02260128  RH  054%=      5-min Rain = 0
KTA1 200617Z 09004KT 23/13 A2983 RMK A01 T02260128  RH  054%=      5-min Rain = 0
KTA1 200618Z 09004KT 23/13 A2983 RMK A01 T02270128  RH  053%=      5-min Rain = 0
KTA1 200619Z 09004KT 23/13 A2983 RMK A01 T02280128  RH  053%=      5-min Rain = 0
KTA1 200620Z 09005KT 23/13 A2983 RMK A01 T02280127  RH  053%=      5-min Rain = 0
KTA1 200621Z 09005KT 23/13 A2983 RMK A01 T02280127  RH  053%=      5-min Rain = 0
KTA1 200622Z 09005KT 23/13 A2983 RMK A01 T02270127  RH  053%=      5-min Rain = 0
KTA1 200623Z 09005KT 23/13 A2983 RMK A01 T02260127  RH  053%=      5-min Rain = 0
KTA1 200624Z 09005KT 23/13 A2983 RMK A01 T02260126  RH  053%=      5-min Rain = 0
KTA1 200625Z 09005KT 23/13 A2983 RMK A01 T02260126  RH  053%=      5-min Rain = 0
KTA1 200626Z 10005KT 23/13 A2983 RMK A01 T02260126  RH  053%=      5-min Rain = 0
KTA1 200627Z 10004KT 23/13 A2983 RMK A01 T02270126  RH  053%=      5-min Rain = 0
KTA1 200628Z 10004KT 23/13 A2983 RMK A01 T02280126  RH  052%=      5-min Rain = 0
KTA1 200629Z 10004KT 23/13 A2983 RMK A01 T02290126  RH  052%=      5-min Rain = 0
KTA1 200630Z 10004KT 23/13 A2983 RMK A01 T02290126  RH  052%=      5-min Rain = 0
KTA1 200631Z 10005KT 23/13 A2982 RMK A01 T02290126  RH  052%=      5-min Rain = 0
KTA1 200632Z 10005KT 23/13 A2982 RMK A01 T02280126  RH  052%=      5-min Rain = 0
KTA1 200633Z 11005KT 23/13 A2982 RMK A01 T02270126  RH  053%=      5-min Rain = 0
KTA1 200634Z 11006KT 23/13 A2982 RMK A01 T02270126  RH  053%=      5-min Rain = 0
KTA1 200635Z 11006KT 23/13 A2982 RMK A01 T02260125  RH  053%=      5-min Rain = 0
KTA1 200636Z 11005KT 23/13 A2982 RMK A01 T02250125  RH  053%=      5-min Rain = 0
KTA1 200637Z 11005KT 23/12 A2982 RMK A01 T02250124  RH  053%=      5-min Rain = 0
KTA1 200638Z 11004KT 22/13 A2982 RMK A01 T02240125  RH  053%=      5-min Rain = 0
KTA1 200639Z 11004KT 22/13 A2982 RMK A01 T02240125  RH  053%=      5-min Rain = 0
KTA1 200640Z 11004KT 22/12 A2982 RMK A01 T02240124  RH  053%=      5-min Rain = 0
KTA1 200641Z 11005KT 22/12 A2982 RMK A01 T02230124  RH  053%=      5-min Rain = 0
KTA1 200642Z 11005KT 22/12 A2982 RMK A01 T02210123  RH  054%=      5-min Rain = 0
KTA1 200643Z 11005KT 22/12 A2982 RMK A01 T02200124  RH  054%=      5-min Rain = 0
KTA1 200644Z 11005KT 22/12 A2982 RMK A01 T02190124  RH  054%=      5-min Rain = 0
KTA1 200645Z 10005KT 22/12 A2982 RMK A01 T02190124  RH  055%=      5-min Rain = 0
KTA1 200646Z 10005KT 22/12 A2982 RMK A01 T02190124  RH  054%=      5-min Rain = 0
KTA1 200647Z 10004KT 22/12 A2982 RMK A01 T02200124  RH  054%=      5-min Rain = 0
KTA1 200648Z 09004KT 22/12 A2982 RMK A01 T02200124  RH  054%=      5-min Rain = 0
KTA1 200649Z 09005KT 22/12 A2982 RMK A01 T02200124  RH  055%=      5-min Rain = 0
KTA1 200650Z 09005KT 22/12 A2982 RMK A01 T02190124  RH  055%=      5-min Rain = 0
KTA1 200651Z 09005KT 22/12 A2982 RMK A01 T02170124  RH  055%=      5-min Rain = 0
KTA1 200652Z 09006KT 22/12 A2982 RMK A01 T02160124  RH  056%=      5-min Rain = 0
KTA1 200653Z 09006KT 21/12 A2982 RMK A01 T02140124  RH  056%=      5-min Rain = 0
KTA1 200654Z 08006KT 21/12 A2982 RMK A01 T02130124  RH  057%=      5-min Rain = 0
KTA1 200655Z 08005KT 21/12 A2983 RMK A01 T02110123  RH  057%=      5-min Rain = 0
KTA1 200656Z 08006KT 21/12 A2983 RMK A01 T02100123  RH  058%=      5-min Rain = 0
KTA1 200657Z 07006KT 21/12 A2983 RMK A01 T02080123  RH  058%=      5-min Rain = 0
KTA1 200658Z 07006KT 21/12 A2983 RMK A01 T02070123  RH  059%=      5-min Rain = 0
KTA1 200659Z 07005KT 21/12 A2983 RMK A01 T02070124  RH  059%=      5-min Rain = 0
KTA1 200700Z 07005KT 21/12 A2983 RMK A01 T02070124  RH  059%=      5-min Rain = 0
KTA1 200701Z 07004KT 21/13 A2983 RMK A01 T02070125  RH  059%=      5-min Rain = 0
KTA1 200702Z 07004KT 21/13 A2983 RMK A01 T02070125  RH  059%=      5-min Rain = 0
KTA1 200703Z 07004KT 21/13 A2983 RMK A01 T02070125  RH  059%=      5-min Rain = 0
KTA1 200704Z 07004KT 21/13 A2983 RMK A01 T02070125  RH  059%=      5-min Rain = 0
KTA1 200705Z 07005KT 21/13 A2983 RMK A01 T02070125  RH  059%=      5-min Rain = 0
KTA1 200706Z 07005KT 21/13 A2983 RMK A01 T02060125  RH  060%=      5-min Rain = 0
KTA1 200707Z 08005KT 21/13 A2983 RMK A01 T02060125  RH  060%=      5-min Rain = 0
KTA1 200708Z 08005KT 21/13 A2982 RMK A01 T02050125  RH  060%=      5-min Rain = 0
KTA1 200709Z 08004KT 21/13 A2982 RMK A01 T02060125  RH  060%=      5-min Rain = 0
KTA1 200710Z 08004KT 21/13 A2982 RMK A01 T02060125  RH  060%=      5-min Rain = 0
KTA1 200711Z 07004KT 21/13 A2982 RMK A01 T02060125  RH  060%=      5-min Rain = 0
KTA1 200712Z 06004KT 21/13 A2983 RMK A01 T02060125  RH  060%=      5-min Rain = 0
KTA1 200713Z 04005KT 21/13 A2983 RMK A01 T02060125  RH  060%=      5-min Rain = 0
KTA1 200714Z 03006KT 21/13 A2983 RMK A01 T02050125  RH  060%=      5-min Rain = 0
KTA1 200715Z 03006KT 20/13 A2983 RMK A01 T02030125  RH  061%=      5-min Rain = 0
KTA1 200716Z 04006KT 20/13 A2983 RMK A01 T02030127  RH  061%=      5-min Rain = 0
KTA1 200717Z 05006KT 20/13 A2983 RMK A01 T02030127  RH  062%=      5-min Rain = 0
KTA1 200718Z 05005KT 20/13 A2983 RMK A01 T02030128  RH  062%=      5-min Rain = 0
KTA1 200719Z 04005KT 20/13 A2983 RMK A01 T02030128  RH  062%=      5-min Rain = 0
KTA1 200720Z 03004KT 20/13 A2983 RMK A01 T02030128  RH  062%=      5-min Rain = 0
KTA1 200721Z 02005KT 20/13 A2983 RMK A01 T02030129  RH  063%=      5-min Rain = 0
KTA1 200722Z 03005KT 20/13 A2983 RMK A01 T02020131  RH  063%=      5-min Rain = 0
KTA1 200723Z 04005KT 20/13 A2983 RMK A01 T02010132  RH  064%=      5-min Rain = 0
KTA1 200724Z 05005KT 20/13 A2983 RMK A01 T02010133  RH  065%=      5-min Rain = 0
KTA1 200725Z 07005KT 20/13 A2982 RMK A01 T02010133  RH  065%=      5-min Rain = 0
KTA1 200726Z 09004KT 20/13 A2982 RMK A01 T02010134  RH  065%=      5-min Rain = 0
KTA1 200727Z 09004KT 20/13 A2982 RMK A01 T02030133  RH  064%=      5-min Rain = 0
KTA1 200728Z 09004KT 21/13 A2982 RMK A01 T02060134  RH  064%=      5-min Rain = 0
KTA1 200729Z 10003KT 21/13 A2982 RMK A01 T02060134  RH  063%=      5-min Rain = 0
KTA1 200730Z 10003KT 21/13 A2982 RMK A01 T02060133  RH  063%=      5-min Rain = 0
KTA1 200731Z 09002KT 21/13 A2982 RMK A01 T02060132  RH  062%=      5-min Rain = 0
KTA1 200732Z 09002KT 21/13 A2982 RMK A01 T02060132  RH  062%=      5-min Rain = 0
KTA1 200733Z 09002KT 21/13 A2982 RMK A01 T02060133  RH  063%=      5-min Rain = 0
KTA1 200734Z 09002KT 21/13 A2982 RMK A01 T02060132  RH  063%=      5-min Rain = 0
KTA1 200735Z 08003KT 21/13 A2982 RMK A01 T02050132  RH  063%=      5-min Rain = 0
KTA1 200736Z 08003KT 20/13 A2982 RMK A01 T02040132  RH  063%=      5-min Rain = 0
KTA1 200737Z 08002KT 20/13 A2982 RMK A01 T02030131  RH  063%=      5-min Rain = 0
KTA1 200738Z 09003KT 20/13 A2982 RMK A01 T02030132  RH  064%=      5-min Rain = 0
KTA1 200739Z 10003KT 20/13 A2982 RMK A01 T02020132  RH  064%=      5-min Rain = 0
KTA1 200740Z 11003KT 20/13 A2982 RMK A01 T02020132  RH  064%=      5-min Rain = 0
KTA1 200741Z 11003KT 20/13 A2982 RMK A01 T02020132  RH  064%=      5-min Rain = 0
KTA1 200742Z 11003KT 20/13 A2982 RMK A01 T02020132  RH  064%=      5-min Rain = 0
KTA1 200743Z 11003KT 20/13 A2982 RMK A01 T02020132  RH  064%=      5-min Rain = 0
KTA1 200744Z 12003KT 20/13 A2982 RMK A01 T02010131  RH  064%=      5-min Rain = 0
KTA1 200745Z 13003KT 20/13 A2982 RMK A01 T02010130  RH  064%=      5-min Rain = 0
KTA1 200746Z 12003KT 20/13 A2981 RMK A01 T02000130  RH  064%=      5-min Rain = 0
KTA1 200747Z 12002KT 20/13 A2982 RMK A01 T02000131  RH  065%=      5-min Rain = 0
KTA1 200748Z 12001KT 20/13 A2982 RMK A01 T02000131  RH  065%=      5-min Rain = 0
KTA1 200749Z 11001KT 20/13 A2982 RMK A01 T01990131  RH  065%=      5-min Rain = 0
KTA1 200750Z 10001KT 20/13 A2982 RMK A01 T01980131  RH  065%=      5-min Rain = 0
KTA1 200751Z 08002KT 20/13 A2982 RMK A01 T01970132  RH  066%=      5-min Rain = 0
KTA1 200752Z 08002KT 20/13 A2982 RMK A01 T01970132  RH  066%=      5-min Rain = 0
KTA1 200753Z 07001KT 20/13 A2982 RMK A01 T01980131  RH  065%=      5-min Rain = 0
KTA1 200754Z 07002KT 20/13 A2982 RMK A01 T01980131  RH  065%=      5-min Rain = 0
KTA1 200755Z 06002KT 20/13 A2982 RMK A01 T01980129  RH  065%=      5-min Rain = 0
KTA1 200756Z 06003KT 20/13 A2982 RMK A01 T01960128  RH  065%=      5-min Rain = 0
KTA1 200757Z 06003KT 20/13 A2982 RMK A01 T01960129  RH  065%=      5-min Rain = 0
KTA1 200758Z 06003KT 20/13 A2982 RMK A01 T01950128  RH  065%=      5-min Rain = 0
KTA1 200759Z 06004KT 20/13 A2982 RMK A01 T01950128  RH  065%=      5-min Rain = 0
KTA1 200800Z 03005KT 19/13 A2982 RMK A01 T01940128  RH  066%=      5-min Rain = 0
KTA1 200801Z 01006KT 19/13 A2982 RMK A01 T01930129  RH  066%=      5-min Rain = 0
KTA1 200802Z 02006KT 19/13 A2982 RMK A01 T01920130  RH  067%=      5-min Rain = 0
KTA1 200803Z 04005KT 19/13 A2982 RMK A01 T01900131  RH  068%=      5-min Rain = 0
KTA1 200804Z 05004KT 19/13 A2982 RMK A01 T01900131  RH  069%=      5-min Rain = 0
KTA1 200805Z 05004KT 19/13 A2982 RMK A01 T01900131  RH  069%=      5-min Rain = 0
KTA1 200806Z 07004KT 19/13 A2982 RMK A01 T01890131  RH  069%=      5-min Rain = 0
KTA1 200807Z 08004KT 19/13 A2982 RMK A01 T01890132  RH  069%=      5-min Rain = 0
KTA1 200808Z 08004KT 19/13 A2982 RMK A01 T01890133  RH  070%=      5-min Rain = 0
KTA1 200809Z 07003KT 19/13 A2982 RMK A01 T01890133  RH  070%=      5-min Rain = 0
KTA1 200810Z 07004KT 19/13 A2982 RMK A01 T01900132  RH  069%=      5-min Rain = 0
KTA1 200811Z 07003KT 19/13 A2982 RMK A01 T01890132  RH  069%=      5-min Rain = 0
KTA1 200812Z 08003KT 19/13 A2982 RMK A01 T01890132  RH  069%=      5-min Rain = 0
KTA1 200813Z 10003KT 19/13 A2981 RMK A01 T01880132  RH  070%=      5-min Rain = 0
KTA1 200814Z 12003KT 19/13 A2981 RMK A01 T01890134  RH  070%=      5-min Rain = 0
KTA1 200815Z 12002KT 19/13 A2981 RMK A01 T01890133  RH  070%=      5-min Rain = 0
KTA1 200816Z 11002KT 19/13 A2981 RMK A01 T01880130  RH  069%=      5-min Rain = 0
KTA1 200817Z 11002KT 19/13 A2981 RMK A01 T01880133  RH  070%=      5-min Rain = 0
KTA1 200818Z 10002KT 19/13 A2981 RMK A01 T01880133  RH  070%=      5-min Rain = 0
KTA1 200819Z 10002KT 19/13 A2981 RMK A01 T01880134  RH  070%=      5-min Rain = 0
KTA1 200820Z 10001KT 19/13 A2981 RMK A01 T01900134  RH  070%=      5-min Rain = 0
KTA1 200821Z 00000KT 19/13 A2981 RMK A01 T01900133  RH  070%=      5-min Rain = 0
KTA1 200822Z 00000KT 19/13 A2981 RMK A01 T01900133  RH  069%=      5-min Rain = 0
KTA1 200823Z 00000KT 19/13 A2981 RMK A01 T01920133  RH  069%=      5-min Rain = 0
KTA1 200824Z 00000KT 19/13 A2981 RMK A01 T01910132  RH  069%=      5-min Rain = 0
KTA1 200825Z 00000KT 19/13 A2981 RMK A01 T01910133  RH  069%=      5-min Rain = 0
KTA1 200826Z 00000KT 19/13 A2981 RMK A01 T01900133  RH  069%=      5-min Rain = 0
KTA1 200827Z 00000KT 19/13 A2981 RMK A01 T01900133  RH  070%=      5-min Rain = 0
KTA1 200828Z 16001KT 19/13 A2981 RMK A01 T01900132  RH  069%=      5-min Rain = 0
KTA1 200829Z 16003KT 19/13 A2981 RMK A01 T01890132  RH  069%=      5-min Rain = 0
KTA1 200830Z 13004KT 19/13 A2981 RMK A01 T01880132  RH  070%=      5-min Rain = 0
KTA1 200831Z 13005KT 19/13 A2981 RMK A01 T01890132  RH  069%=      5-min Rain = 0
KTA1 200832Z 13005KT 19/13 A2981 RMK A01 T01880130  RH  069%=      5-min Rain = 0
KTA1 200833Z 14005KT 19/13 A2981 RMK A01 T01870129  RH  069%=      5-min Rain = 0
KTA1 200834Z 15004KT 19/13 A2981 RMK A01 T01850128  RH  069%=      5-min Rain = 0
KTA1 200835Z 14004KT 19/13 A2981 RMK A01 T01850128  RH  070%=      5-min Rain = 0
KTA1 200836Z 14004KT 18/13 A2981 RMK A01 T01840129  RH  070%=      5-min Rain = 0
KTA1 200837Z 15004KT 18/13 A2981 RMK A01 T01840129  RH  070%=      5-min Rain = 0
KTA1 200838Z 16003KT 18/13 A2981 RMK A01 T01840129  RH  070%=      5-min Rain = 0
KTA1 200839Z 16003KT 18/13 A2981 RMK A01 T01840128  RH  070%=      5-min Rain = 0
KTA1 200840Z 17003KT 18/13 A2981 RMK A01 T01840128  RH  070%=      5-min Rain = 0
KTA1 200841Z 17003KT 18/13 A2981 RMK A01 T01830128  RH  070%=      5-min Rain = 0
KTA1 200842Z 19002KT 18/13 A2981 RMK A01 T01830128  RH  070%=      5-min Rain = 0
KTA1 200843Z 19002KT 18/13 A2981 RMK A01 T01830128  RH  070%=      5-min Rain = 0
KTA1 200844Z 21003KT 18/13 A2981 RMK A01 T01830127  RH  070%=      5-min Rain = 0
KTA1 200845Z 21003KT 18/13 A2981 RMK A01 T01820126  RH  070%=      5-min Rain = 0
KTA1 200846Z 21002KT 18/13 A2981 RMK A01 T01810126  RH  070%=      5-min Rain = 0
KTA1 200847Z 21002KT 18/13 A2981 RMK A01 T01810126  RH  070%=      5-min Rain = 0
KTA1 200848Z 22002KT 18/13 A2981 RMK A01 T01810126  RH  070%=      5-min Rain = 0
KTA1 200849Z 24002KT 18/13 A2981 RMK A01 T01800126  RH  070%=      5-min Rain = 0
KTA1 200850Z 24002KT 18/13 A2981 RMK A01 T01800126  RH  070%=      5-min Rain = 0
KTA1 200851Z 26001KT 18/13 A2981 RMK A01 T01800126  RH  070%=      5-min Rain = 0
KTA1 200852Z 27001KT 18/13 A2981 RMK A01 T01800127  RH  071%=      5-min Rain = 0
KTA1 200853Z 27002KT 18/13 A2981 RMK A01 T01800127  RH  071%=      5-min Rain = 0
KTA1 200854Z 26001KT 18/13 A2981 RMK A01 T01810127  RH  071%=      5-min Rain = 0
KTA1 200855Z 26001KT 18/13 A2981 RMK A01 T01800126  RH  071%=      5-min Rain = 0
KTA1 200856Z 27001KT 18/13 A2981 RMK A01 T01800126  RH  071%=      5-min Rain = 0
KTA1 200857Z 00000KT 18/13 A2981 RMK A01 T01800127  RH  071%=      5-min Rain = 0
KTA1 200858Z 00000KT 18/13 A2981 RMK A01 T01790126  RH  071%=      5-min Rain = 0
KTA1 200859Z 00000KT 18/13 A2981 RMK A01 T01780125  RH  071%=      5-min Rain = 0
KTA1 200900Z 00000KT 18/13 A2981 RMK A01 T01780126  RH  071%=      5-min Rain = 0
KTA1 200901Z 00000KT 18/13 A2981 RMK A01 T01780125  RH  071%=      5-min Rain = 0
KTA1 200902Z 00000KT 18/13 A2981 RMK A01 T01780126  RH  071%=      5-min Rain = 0
KTA1 200903Z 00000KT 18/13 A2981 RMK A01 T01780125  RH  071%=      5-min Rain = 0
KTA1 200904Z 00000KT 18/13 A2981 RMK A01 T01780127  RH  072%=      5-min Rain = 0
KTA1 200905Z 00000KT 18/13 A2981 RMK A01 T01780128  RH  072%=      5-min Rain = 0
KTA1 200906Z 00000KT 18/13 A2981 RMK A01 T01780127  RH  072%=      5-min Rain = 0
KTA1 200907Z 00000KT 18/13 A2981 RMK A01 T01780125  RH  071%=      5-min Rain = 0
KTA1 200908Z 00000KT 18/13 A2981 RMK A01 T01770125  RH  071%=      5-min Rain = 0
KTA1 200909Z 00000KT 18/13 A2981 RMK A01 T01770125  RH  072%=      5-min Rain = 0
KTA1 200910Z 00000KT 18/13 A2981 RMK A01 T01760127  RH  073%=      5-min Rain = 0
KTA1 200911Z 00000KT 18/13 A2981 RMK A01 T01750129  RH  074%=      5-min Rain = 0
KTA1 200912Z 00000KT 18/13 A2981 RMK A01 T01750129  RH  074%=      5-min Rain = 0
KTA1 200913Z 00000KT 18/13 A2981 RMK A01 T01750130  RH  075%=      5-min Rain = 0
KTA1 200914Z 00000KT 17/13 A2981 RMK A01 T01740132  RH  076%=      5-min Rain = 0
KTA1 200915Z 00000KT 18/13 A2981 RMK A01 T01750134  RH  077%=      5-min Rain = 0
KTA1 200916Z 00000KT 18/13 A2981 RMK A01 T01760133  RH  076%=      5-min Rain = 0
KTA1 200917Z 00000KT 18/13 A2981 RMK A01 T01750130  RH  075%=      5-min Rain = 0
KTA1 200918Z 00000KT 17/13 A2981 RMK A01 T01730130  RH  076%=      5-min Rain = 0
KTA1 200919Z 00000KT 17/13 A2981 RMK A01 T01720132  RH  077%=      5-min Rain = 0
KTA1 200920Z 00000KT 17/13 A2981 RMK A01 T01710129  RH  076%=      5-min Rain = 0
KTA1 200921Z 00000KT 17/13 A2981 RMK A01 T01700130  RH  077%=      5-min Rain = 0
KTA1 200922Z 28001KT 17/13 A2981 RMK A01 T01690130  RH  078%=      5-min Rain = 0
KTA1 200923Z 28002KT 17/13 A2981 RMK A01 T01690134  RH  080%=      5-min Rain = 0
KTA1 200924Z 27002KT 17/14 A2981 RMK A01 T01680135  RH  081%=      5-min Rain = 0
KTA1 200925Z 28002KT 17/14 A2981 RMK A01 T01680135  RH  081%=      5-min Rain = 0
KTA1 200926Z 29003KT 17/14 A2981 RMK A01 T01680136  RH  081%=      5-min Rain = 0
KTA1 200927Z 26002KT 17/14 A2981 RMK A01 T01680135  RH  081%=      5-min Rain = 0
KTA1 200928Z 24002KT 17/13 A2981 RMK A01 T01680134  RH  080%=      5-min Rain = 0
KTA1 200929Z 24002KT 17/13 A2981 RMK A01 T01680132  RH  080%=      5-min Rain = 0
KTA1 200930Z 23002KT 17/13 A2981 RMK A01 T01670130  RH  079%=      5-min Rain = 0
KTA1 200931Z 23002KT 17/13 A2981 RMK A01 T01660127  RH  078%=      5-min Rain = 0
KTA1 200932Z 23001KT 17/13 A2981 RMK A01 T01650125  RH  077%=      5-min Rain = 0
KTA1 200933Z 23001KT 16/12 A2982 RMK A01 T01630124  RH  077%=      5-min Rain = 0
KTA1 200934Z 22002KT 16/13 A2982 RMK A01 T01620125  RH  079%=      5-min Rain = 0
KTA1 200935Z 22002KT 16/13 A2982 RMK A01 T01610125  RH  079%=      5-min Rain = 0
KTA1 200936Z 22002KT 16/13 A2982 RMK A01 T01610125  RH  079%=      5-min Rain = 0
KTA1 200937Z 22002KT 16/12 A2982 RMK A01 T01600124  RH  079%=      5-min Rain = 0
KTA1 200938Z 22002KT 16/12 A2982 RMK A01 T01590124  RH  079%=      5-min Rain = 0
KTA1 200939Z 21002KT 16/12 A2982 RMK A01 T01590124  RH  080%=      5-min Rain = 0
KTA1 200940Z 21003KT 16/13 A2982 RMK A01 T01590127  RH  081%=      5-min Rain = 0
KTA1 200941Z 22003KT 16/13 A2982 RMK A01 T01600128  RH  082%=      5-min Rain = 0
KTA1 200942Z 22003KT 16/13 A2982 RMK A01 T01600128  RH  081%=      5-min Rain = 0
KTA1 200943Z 23003KT 16/13 A2982 RMK A01 T01600127  RH  081%=      5-min Rain = 0
KTA1 200944Z 23004KT 16/13 A2982 RMK A01 T01610128  RH  081%=      5-min Rain = 0
KTA1 200945Z 23004KT 16/13 A2982 RMK A01 T01620131  RH  082%=      5-min Rain = 0
KTA1 200946Z 23004KT 16/13 A2982 RMK A01 T01620130  RH  081%=      5-min Rain = 0
KTA1 200947Z 23004KT 16/13 A2982 RMK A01 T01630129  RH  080%=      5-min Rain = 0
KTA1 200948Z 23005KT 16/13 A2982 RMK A01 T01640129  RH  080%=      5-min Rain = 0
KTA1 200949Z 23005KT 16/13 A2982 RMK A01 T01640129  RH  080%=      5-min Rain = 0
KTA1 200950Z 22005KT 16/13 A2982 RMK A01 T01630129  RH  080%=      5-min Rain = 0
KTA1 200951Z 22006KT 16/13 A2982 RMK A01 T01620129  RH  081%=      5-min Rain = 0
KTA1 200952Z 22006KT 16/13 A2982 RMK A01 T01600128  RH  081%=      5-min Rain = 0
KTA1 200953Z 22006KT 16/13 A2982 RMK A01 T01600128  RH  082%=      5-min Rain = 0
KTA1 200954Z 22006KT 16/13 A2982 RMK A01 T01590129  RH  082%=      5-min Rain = 0
KTA1 200955Z 23006KT 16/13 A2982 RMK A01 T01590129  RH  082%=      5-min Rain = 0
KTA1 200956Z 23006KT 16/13 A2982 RMK A01 T01590129  RH  082%=      5-min Rain = 0
KTA1 200957Z 23006KT 16/13 A2982 RMK A01 T01580128  RH  082%=      5-min Rain = 0
KTA1 200958Z 23006KT 16/13 A2982 RMK A01 T01570128  RH  083%=      5-min Rain = 0
KTA1 200959Z 24006KT 16/13 A2982 RMK A01 T01560129  RH  084%=      5-min Rain = 0
KTA1 201000Z 23006KT 16/13 A2982 RMK A01 T01560130  RH  084%=      5-min Rain = 0
KTA1 201001Z 23006KT 16/13 A2982 RMK A01 T01550129  RH  085%=      5-min Rain = 0
KTA1 201002Z 23006KT 16/13 A2982 RMK A01 T01550129  RH  085%=      5-min Rain = 0
KTA1 201003Z 23006KT 16/13 A2982 RMK A01 T01550129  RH  085%=      5-min Rain = 0
KTA1 201004Z 23006KT 16/13 A2982 RMK A01 T01550129  RH  085%=      5-min Rain = 0
KTA1 201005Z 23006KT 15/13 A2982 RMK A01 T01540129  RH  085%=      5-min Rain = 0
KTA1 201006Z 23006KT 15/13 A2982 RMK A01 T01540129  RH  085%=      5-min Rain = 0
KTA1 201007Z 23006KT 15/13 A2982 RMK A01 T01540130  RH  085%=      5-min Rain = 0
KTA1 201008Z 22006KT 15/13 A2982 RMK A01 T01540130  RH  086%=      5-min Rain = 0
KTA1 201009Z 23006KT 15/13 A2982 RMK A01 T01540129  RH  085%=      5-min Rain = 0
KTA1 201010Z 23007KT 15/13 A2982 RMK A01 T01530128  RH  085%=      5-min Rain = 0
KTA1 201011Z 23007KT 15/13 A2982 RMK A01 T01530128  RH  085%=      5-min Rain = 0
KTA1 201012Z 22007KT 15/13 A2982 RMK A01 T01530128  RH  085%=      5-min Rain = 0
KTA1 201013Z 22008KT 15/13 A2982 RMK A01 T01530128  RH  085%=      5-min Rain = 0
KTA1 201014Z 22008KT 15/13 A2982 RMK A01 T01530128  RH  085%=      5-min Rain = 0
KTA1 201015Z 22007KT 15/13 A2982 RMK A01 T01530128  RH  085%=      5-min Rain = 0
KTA1 201016Z 22008KT 15/13 A2982 RMK A01 T01540128  RH  085%=      5-min Rain = 0
KTA1 201017Z 23007KT 15/13 A2982 RMK A01 T01540128  RH  084%=      5-min Rain = 0
KTA1 201018Z 22008KT 16/13 A2982 RMK A01 T01550128  RH  084%=      5-min Rain = 0
KTA1 201019Z 23009KT 16/13 A2982 RMK A01 T01550127  RH  084%=      5-min Rain = 0
KTA1 201020Z 23008KT 16/13 A2982 RMK A01 T01570127  RH  082%=      5-min Rain = 0
KTA1 201021Z 22008KT 16/13 A2982 RMK A01 T01590125  RH  081%=      5-min Rain = 0
KTA1 201022Z 23007KT 16/12 A2982 RMK A01 T01610124  RH  079%=      5-min Rain = 0
KTA1 201023Z 23007KT 16/12 A2982 RMK A01 T01620123  RH  078%=      5-min Rain = 0
KTA1 201024Z 23007KT 16/12 A2982 RMK A01 T01630123  RH  077%=      5-min Rain = 0
KTA1 201025Z 23007KT 16/12 A2982 RMK A01 T01630123  RH  077%=      5-min Rain = 0
KTA1 201026Z 23007KT 16/12 A2982 RMK A01 T01620122  RH  077%=      5-min Rain = 0
KTA1 201027Z 23007KT 16/12 A2982 RMK A01 T01620122  RH  077%=      5-min Rain = 0
KTA1 201028Z 23006KT 16/12 A2982 RMK A01 T01610122  RH  078%=      5-min Rain = 0
KTA1 201029Z 24007KT 16/12 A2982 RMK A01 T01610123  RH  078%=      5-min Rain = 0
KTA1 201030Z 24007KT 16/12 A2982 RMK A01 T01610124  RH  078%=      5-min Rain = 0
KTA1 201031Z 24007KT 16/12 A2982 RMK A01 T01620124  RH  078%=      5-min Rain = 0
KTA1 201032Z 24007KT 16/12 A2982 RMK A01 T01630124  RH  078%=      5-min Rain = 0
KTA1 201033Z 24007KT 16/12 A2982 RMK A01 T01640124  RH  077%=      5-min Rain = 0
KTA1 201034Z 24008KT 17/12 A2982 RMK A01 T01650123  RH  076%=      5-min Rain = 0
KTA1 201035Z 24007KT 17/12 A2982 RMK A01 T01660122  RH  075%=      5-min Rain = 0
KTA1 201036Z 25007KT 17/12 A2982 RMK A01 T01670121  RH  074%=      5-min Rain = 0
KTA1 201037Z 25007KT 17/12 A2982 RMK A01 T01670120  RH  074%=      5-min Rain = 0
KTA1 201038Z 25007KT 17/12 A2982 RMK A01 T01680120  RH  073%=      5-min Rain = 0
KTA1 201039Z 25007KT 17/12 A2982 RMK A01 T01680118  RH  072%=      5-min Rain = 0
KTA1 201040Z 25007KT 17/12 A2982 RMK A01 T01690118  RH  072%=      5-min Rain = 0
KTA1 201041Z 25007KT 17/12 A2982 RMK A01 T01700117  RH  071%=      5-min Rain = 0
KTA1 201042Z 25007KT 17/12 A2982 RMK A01 T01700116  RH  070%=      5-min Rain = 0
KTA1 201043Z 25007KT 17/12 A2982 RMK A01 T01700115  RH  070%=      5-min Rain = 0
KTA1 201044Z 25007KT 17/11 A2982 RMK A01 T01710114  RH  069%=      5-min Rain = 0
KTA1 201045Z 24007KT 17/11 A2982 RMK A01 T01710114  RH  069%=      5-min Rain = 0
KTA1 201046Z 25006KT 17/11 A2982 RMK A01 T01720114  RH  069%=      5-min Rain = 0
KTA1 201047Z 25006KT 17/11 A2982 RMK A01 T01720113  RH  068%=      5-min Rain = 0
KTA1 201048Z 24006KT 17/11 A2982 RMK A01 T01710114  RH  069%=      5-min Rain = 0
KTA1 201049Z 24006KT 17/11 A2982 RMK A01 T01710113  RH  069%=      5-min Rain = 0
KTA1 201050Z 24006KT 17/11 A2982 RMK A01 T01710114  RH  069%=      5-min Rain = 0
KTA1 201051Z 25007KT 17/11 A2982 RMK A01 T01700114  RH  069%=      5-min Rain = 0
KTA1 201052Z 24006KT 17/11 A2982 RMK A01 T01690113  RH  069%=      5-min Rain = 0
KTA1 201053Z 24007KT 17/11 A2982 RMK A01 T01690114  RH  070%=      5-min Rain = 0
KTA1 201054Z 24007KT 17/11 A2982 RMK A01 T01690113  RH  070%=      5-min Rain = 0
KTA1 201055Z 24006KT 17/11 A2982 RMK A01 T01680112  RH  070%=      5-min Rain = 0
KTA1 201056Z 24006KT 17/11 A2982 RMK A01 T01680112  RH  069%=      5-min Rain = 0
KTA1 201057Z 24007KT 17/11 A2982 RMK A01 T01680112  RH  070%=      5-min Rain = 0
KTA1 201058Z 24007KT 17/11 A2982 RMK A01 T01680113  RH  070%=      5-min Rain = 0
KTA1 201059Z 24007KT 17/11 A2982 RMK A01 T01690111  RH  069%=      5-min Rain = 0
KTA1 201100Z 24007KT 17/11 A2982 RMK A01 T01680109  RH  068%=      5-min Rain = 0
KTA1 201101Z 24007KT 17/11 A2982 RMK A01 T01690108  RH  067%=      5-min Rain = 0
KTA1 201102Z 24006KT 17/11 A2982 RMK A01 T01690108  RH  067%=      5-min Rain = 0
KTA1 201103Z 24007KT 17/11 A2982 RMK A01 T01690108  RH  067%=      5-min Rain = 0
KTA1 201104Z 24007KT 17/11 A2982 RMK A01 T01690109  RH  068%=      5-min Rain = 0
KTA1 201105Z 24007KT 17/11 A2982 RMK A01 T01680110  RH  068%=      5-min Rain = 0
KTA1 201106Z 24006KT 17/11 A2982 RMK A01 T01670109  RH  068%=      5-min Rain = 0
KTA1 201107Z 24006KT 17/11 A2982 RMK A01 T01670108  RH  068%=      5-min Rain = 0
KTA1 201108Z 24006KT 17/11 A2982 RMK A01 T01660106  RH  068%=      5-min Rain = 0
KTA1 201109Z 23006KT 17/11 A2982 RMK A01 T01660105  RH  067%=      5-min Rain = 0
KTA1 201110Z 23007KT 17/10 A2982 RMK A01 T01650104  RH  067%=      5-min Rain = 0
KTA1 201111Z 23007KT 16/10 A2982 RMK A01 T01640102  RH  066%=      5-min Rain = 0
KTA1 201112Z 23007KT 16/10 A2982 RMK A01 T01640100  RH  066%=      5-min Rain = 0
KTA1 201113Z 22006KT 16/10 A2982 RMK A01 T01640098  RH  065%=      5-min Rain = 0
KTA1 201114Z 23006KT 17/10 A2983 RMK A01 T01650098  RH  065%=      5-min Rain = 0
KTA1 201115Z 23006KT 17/10 A2983 RMK A01 T01660097  RH  064%=      5-min Rain = 0
KTA1 201116Z 22007KT 17/10 A2983 RMK A01 T01660097  RH  063%=      5-min Rain = 0
KTA1 201117Z 22006KT 17/10 A2983 RMK A01 T01670097  RH  063%=      5-min Rain = 0
KTA1 201118Z 23006KT 17/10 A2983 RMK A01 T01680096  RH  062%=      5-min Rain = 0
KTA1 201119Z 22006KT 17/10 A2983 RMK A01 T01690096  RH  062%=      5-min Rain = 0
KTA1 201120Z 22006KT 17/10 A2983 RMK A01 T01690095  RH  062%=      5-min Rain = 0
KTA1 201121Z 22007KT 17/09 A2983 RMK A01 T01690094  RH  061%=      5-min Rain = 0
KTA1 201122Z 22006KT 17/09 A2983 RMK A01 T01700093  RH  060%=      5-min Rain = 0
KTA1 201123Z 21006KT 17/09 A2983 RMK A01 T01710093  RH  060%=      5-min Rain = 0
KTA1 201124Z 21005KT 17/09 A2983 RMK A01 T01720093  RH  060%=      5-min Rain = 0
KTA1 201125Z 21005KT 17/09 A2983 RMK A01 T01720093  RH  060%=      5-min Rain = 0
KTA1 201126Z 21005KT 17/09 A2983 RMK A01 T01720093  RH  060%=      5-min Rain = 0
KTA1 201127Z 22005KT 17/09 A2983 RMK A01 T01710093  RH  060%=      5-min Rain = 0
KTA1 201128Z 22006KT 17/09 A2983 RMK A01 T01710093  RH  060%=      5-min Rain = 0
KTA1 201129Z 21006KT 17/09 A2983 RMK A01 T01700093  RH  060%=      5-min Rain = 0
KTA1 201130Z 21006KT 17/09 A2983 RMK A01 T01700091  RH  060%=      5-min Rain = 0
KTA1 201131Z 21007KT 17/09 A2983 RMK A01 T01700089  RH  059%=      5-min Rain = 0
KTA1 201132Z 21007KT 17/09 A2983 RMK A01 T01700087  RH  058%=      5-min Rain = 0
KTA1 201133Z 21007KT 17/09 A2983 RMK A01 T01700085  RH  057%=      5-min Rain = 0
KTA1 201134Z 21006KT 17/08 A2983 RMK A01 T01700084  RH  057%=      5-min Rain = 0
KTA1 201135Z 21006KT 17/09 A2983 RMK A01 T01710085  RH  057%=      5-min Rain = 0
KTA1 201136Z 21007KT 17/09 A2983 RMK A01 T01710085  RH  057%=      5-min Rain = 0
KTA1 201137Z 21008KT 17/09 A2983 RMK A01 T01710086  RH  057%=      5-min Rain = 0
KTA1 201138Z 21008KT 17/09 A2983 RMK A01 T01710085  RH  057%=      5-min Rain = 0
KTA1 201139Z 22008KT 17/08 A2983 RMK A01 T01710084  RH  056%=      5-min Rain = 0
KTA1 201140Z 22007KT 17/08 A2983 RMK A01 T01720083  RH  056%=      5-min Rain = 0
KTA1 201141Z 22007KT 17/08 A2984 RMK A01 T01730082  RH  055%=      5-min Rain = 0
KTA1 201142Z 22007KT 17/08 A2984 RMK A01 T01740081  RH  054%=      5-min Rain = 0
KTA1 201143Z 22006KT 17/08 A2984 RMK A01 T01740080  RH  054%=      5-min Rain = 0
KTA1 201144Z 22006KT 17/08 A2984 RMK A01 T01740080  RH  054%=      5-min Rain = 0
KTA1 201145Z 22006KT 17/08 A2984 RMK A01 T01740080  RH  054%=      5-min Rain = 0
KTA1 201146Z 21006KT 17/08 A2984 RMK A01 T01740079  RH  054%=      5-min Rain = 0
KTA1 201147Z 20006KT 17/08 A2984 RMK A01 T01730077  RH  053%=      5-min Rain = 0
KTA1 201148Z 20007KT 17/08 A2984 RMK A01 T01740077  RH  053%=      5-min Rain = 0
KTA1 201149Z 20007KT 17/08 A2984 RMK A01 T01730077  RH  053%=      5-min Rain = 0
KTA1 201150Z 20006KT 17/08 A2984 RMK A01 T01740077  RH  053%=      5-min Rain = 0
KTA1 201151Z 20006KT 17/08 A2984 RMK A01 T01730078  RH  054%=      5-min Rain = 0
KTA1 201152Z 20006KT 17/08 A2984 RMK A01 T01720079  RH  054%=      5-min Rain = 0
KTA1 201153Z 20006KT 17/08 A2984 RMK A01 T01710079  RH  055%=      5-min Rain = 0
KTA1 201154Z 20006KT 17/08 A2984 RMK A01 T01700079  RH  055%=      5-min Rain = 0
KTA1 201155Z 20007KT 17/08 A2984 RMK A01 T01700079  RH  055%=      5-min Rain = 0
KTA1 201156Z 20007KT 17/08 A2984 RMK A01 T01690078  RH  055%=      5-min Rain = 0
KTA1 201157Z 20007KT 17/08 A2984 RMK A01 T01690077  RH  054%=      5-min Rain = 0
KTA1 201158Z 20007KT 17/08 A2984 RMK A01 T01700075  RH  054%=      5-min Rain = 0
KTA1 201159Z 19006KT 17/08 A2984 RMK A01 T01700075  RH  054%=      5-min Rain = 0
KTA1 201200Z 19007KT 17/08 A2985 RMK A01 T01700077  RH  054%=      5-min Rain = 0
KTA1 201201Z 19007KT 17/08 A2985 RMK A01 T01690078  RH  055%=      5-min Rain = 0
KTA1 201202Z 19007KT 17/08 A2985 RMK A01 T01680078  RH  055%=      5-min Rain = 0
KTA1 201203Z 19007KT 17/08 A2985 RMK A01 T01680079  RH  056%=      5-min Rain = 0
KTA1 201204Z 20007KT 17/08 A2985 RMK A01 T01670079  RH  056%=      5-min Rain = 0
KTA1 201205Z 19007KT 17/08 A2985 RMK A01 T01670079  RH  056%=      5-min Rain = 0
KTA1 201206Z 20007KT 17/08 A2985 RMK A01 T01670080  RH  056%=      5-min Rain = 0
KTA1 201207Z 20007KT 17/08 A2985 RMK A01 T01670081  RH  057%=      5-min Rain = 0
KTA1 201208Z 20007KT 17/08 A2985 RMK A01 T01670081  RH  057%=      5-min Rain = 0
KTA1 201209Z 20007KT 17/08 A2985 RMK A01 T01670082  RH  057%=      5-min Rain = 0
KTA1 201210Z 20007KT 17/08 A2985 RMK A01 T01670082  RH  057%=      5-min Rain = 0
KTA1 201211Z 20007KT 17/08 A2985 RMK A01 T01670081  RH  057%=      5-min Rain = 0
KTA1 201212Z 20007KT 17/08 A2985 RMK A01 T01680080  RH  056%=      5-min Rain = 0
KTA1 201213Z 20007KT 17/08 A2985 RMK A01 T01690080  RH  056%=      5-min Rain = 0
KTA1 201214Z 20007KT 17/08 A2985 RMK A01 T01700080  RH  056%=      5-min Rain = 0
KTA1 201215Z 20007KT 17/08 A2985 RMK A01 T01700080  RH  055%=      5-min Rain = 0
KTA1 201216Z 20007KT 17/08 A2985 RMK A01 T01710080  RH  055%=      5-min Rain = 0
KTA1 201217Z 20007KT 17/08 A2985 RMK A01 T01710080  RH  055%=      5-min Rain = 0
KTA1 201218Z 20007KT 17/08 A2985 RMK A01 T01720079  RH  054%=      5-min Rain = 0
KTA1 201219Z 20007KT 17/08 A2985 RMK A01 T01730077  RH  053%=      5-min Rain = 0
KTA1 201220Z 20007KT 17/08 A2985 RMK A01 T01740075  RH  052%=      5-min Rain = 0
KTA1 201221Z 20007KT 18/07 A2985 RMK A01 T01760073  RH  051%=      5-min Rain = 0
KTA1 201222Z 20007KT 18/07 A2985 RMK A01 T01780071  RH  050%=      5-min Rain = 0
KTA1 201223Z 20007KT 18/07 A2985 RMK A01 T01790070  RH  049%=      5-min Rain = 0
KTA1 201224Z 20007KT 18/07 A2985 RMK A01 T01800070  RH  049%=      5-min Rain = 0
KTA1 201225Z 19007KT 18/07 A2985 RMK A01 T01810071  RH  049%=      5-min Rain = 0
KTA1 201226Z 20007KT 18/07 A2985 RMK A01 T01810070  RH  048%=      5-min Rain = 0
KTA1 201227Z 20006KT 18/07 A2986 RMK A01 T01820071  RH  048%=      5-min Rain = 0
KTA1 201228Z 20006KT 18/07 A2986 RMK A01 T01820071  RH  048%=      5-min Rain = 0
KTA1 201229Z 20006KT 18/07 A2986 RMK A01 T01820070  RH  048%=      5-min Rain = 0
KTA1 201230Z 19005KT 18/07 A2986 RMK A01 T01830070  RH  048%=      5-min Rain = 0
KTA1 201231Z 19005KT 18/07 A2986 RMK A01 T01830073  RH  049%=      5-min Rain = 0
KTA1 201232Z 19005KT 18/08 A2986 RMK A01 T01840077  RH  050%=      5-min Rain = 0
KTA1 201233Z 19005KT 18/08 A2986 RMK A01 T01830076  RH  050%=      5-min Rain = 0
KTA1 201234Z 19005KT 18/08 A2986 RMK A01 T01830076  RH  049%=      5-min Rain = 0
KTA1 201235Z 20005KT 18/08 A2986 RMK A01 T01830076  RH  050%=      5-min Rain = 0
KTA1 201236Z 20005KT 18/08 A2986 RMK A01 T01830076  RH  050%=      5-min Rain = 0
KTA1 201237Z 20005KT 18/08 A2986 RMK A01 T01830076  RH  050%=      5-min Rain = 0
KTA1 201238Z 20005KT 18/08 A2986 RMK A01 T01830076  RH  049%=      5-min Rain = 0
KTA1 201239Z 19005KT 18/08 A2986 RMK A01 T01830076  RH  049%=      5-min Rain = 0
KTA1 201240Z 19005KT 18/08 A2986 RMK A01 T01840076  RH  049%=      5-min Rain = 0
KTA1 201241Z 19005KT 18/08 A2986 RMK A01 T01840076  RH  049%=      5-min Rain = 0
KTA1 201242Z 19005KT 19/08 A2986 RMK A01 T01850078  RH  050%=      5-min Rain = 0
KTA1 201243Z 20005KT 19/08 A2986 RMK A01 T01860077  RH  049%=      5-min Rain = 0
KTA1 201244Z 20005KT 19/08 A2986 RMK A01 T01860077  RH  049%=      5-min Rain = 0
KTA1 201245Z 19005KT 19/08 A2986 RMK A01 T01870078  RH  049%=      5-min Rain = 0
KTA1 201246Z 19005KT 19/08 A2986 RMK A01 T01870078  RH  049%=      5-min Rain = 0
KTA1 201247Z 17005KT 19/08 A2986 RMK A01 T01870079  RH  049%=      5-min Rain = 0
KTA1 201248Z 18005KT 19/08 A2986 RMK A01 T01880078  RH  049%=      5-min Rain = 0
KTA1 201249Z 18005KT 19/08 A2986 RMK A01 T01880080  RH  049%=      5-min Rain = 0
KTA1 201250Z 19005KT 19/08 A2986 RMK A01 T01890079  RH  049%=      5-min Rain = 0
KTA1 201251Z 20005KT 19/08 A2986 RMK A01 T01890079  RH  049%=      5-min Rain = 0
KTA1 201252Z 20005KT 19/08 A2986 RMK A01 T01890078  RH  048%=      5-min Rain = 0
KTA1 201253Z 20005KT 19/08 A2986 RMK A01 T01890080  RH  049%=      5-min Rain = 0
KTA1 201254Z 20006KT 19/08 A2986 RMK A01 T01900079  RH  049%=      5-min Rain = 0
KTA1 201255Z 20005KT 19/08 A2986 RMK A01 T01900080  RH  049%=      5-min Rain = 0
KTA1 201256Z 20006KT 19/08 A2986 RMK A01 T01910080  RH  049%=      5-min Rain = 0
KTA1 201257Z 20005KT 19/08 A2986 RMK A01 T01910079  RH  048%=      5-min Rain = 0
KTA1 201258Z 20006KT 19/08 A2986 RMK A01 T01920080  RH  048%=      5-min Rain = 0
KTA1 201259Z 20006KT 19/08 A2986 RMK A01 T01930080  RH  048%=      5-min Rain = 0
KTA1 201300Z 20006KT 19/08 A2986 RMK A01 T01940079  RH  047%=      5-min Rain = 0
KTA1 201301Z 20006KT 20/08 A2986 RMK A01 T01950078  RH  047%=      5-min Rain = 0
KTA1 201302Z 21006KT 20/08 A2986 RMK A01 T01960078  RH  047%=      5-min Rain = 0
KTA1 201303Z 21006KT 20/08 A2986 RMK A01 T01970079  RH  047%=      5-min Rain = 0
KTA1 201304Z 21007KT 20/08 A2986 RMK A01 T01990079  RH  046%=      5-min Rain = 0
KTA1 201305Z 21006KT 20/08 A2986 RMK A01 T02000075  RH  044%=      5-min Rain = 0
KTA1 201306Z 21006KT 20/08 A2986 RMK A01 T02010076  RH  044%=      5-min Rain = 0
KTA1 201307Z 21006KT 20/08 A2986 RMK A01 T02030077  RH  044%=      5-min Rain = 0
KTA1 201308Z 20006KT 20/08 A2986 RMK A01 T02040076  RH  043%=      5-min Rain = 0
KTA1 201309Z 20006KT 21/08 A2987 RMK A01 T02050077  RH  043%=      5-min Rain = 0
KTA1 201310Z 20007KT 21/08 A2987 RMK A01 T02060077  RH  043%=      5-min Rain = 0
KTA1 201311Z 20006KT 21/08 A2987 RMK A01 T02070076  RH  043%=      5-min Rain = 0
KTA1 201312Z 20007KT 21/08 A2987 RMK A01 T02080077  RH  043%=      5-min Rain = 0
KTA1 201313Z 20006KT 21/08 A2987 RMK A01 T02090077  RH  042%=      5-min Rain = 0
KTA1 201314Z 20007KT 21/08 A2987 RMK A01 T02100075  RH  042%=      5-min Rain = 0
KTA1 201315Z 20006KT 21/08 A2987 RMK A01 T02110075  RH  041%=      5-min Rain = 0
KTA1 201316Z 20007KT 21/08 A2987 RMK A01 T02120075  RH  041%=      5-min Rain = 0
KTA1 201317Z 21007KT 21/07 A2987 RMK A01 T02140074  RH  041%=      5-min Rain = 0
KTA1 201318Z 21007KT 22/07 A2987 RMK A01 T02150074  RH  040%=      5-min Rain = 0
KTA1 201319Z 20007KT 22/08 A2987 RMK A01 T02170075  RH  040%=      5-min Rain = 0
KTA1 201320Z 21006KT 22/08 A2987 RMK A01 T02180075  RH  040%=      5-min Rain = 0
KTA1 201321Z 21007KT 22/08 A2987 RMK A01 T02190076  RH  040%=      5-min Rain = 0
KTA1 201322Z 21006KT 22/08 A2987 RMK A01 T02210077  RH  040%=      5-min Rain = 0
KTA1 201323Z 21006KT 22/08 A2987 RMK A01 T02220078  RH  040%=      5-min Rain = 0
KTA1 201324Z 22006KT 22/08 A2987 RMK A01 T02230077  RH  039%=      5-min Rain = 0
KTA1 201325Z 22007KT 22/08 A2987 RMK A01 T02240076  RH  039%=      5-min Rain = 0
KTA1 201326Z 22006KT 23/08 A2987 RMK A01 T02250076  RH  038%=      5-min Rain = 0
KTA1 201327Z 22005KT 23/08 A2987 RMK A01 T02260079  RH  039%=      5-min Rain = 0
KTA1 201328Z 22006KT 23/08 A2987 RMK A01 T02280081  RH  039%=      5-min Rain = 0
KTA1 201329Z 22006KT 23/08 A2987 RMK A01 T02300076  RH  037%=      5-min Rain = 0
KTA1 201330Z 22006KT 23/08 A2987 RMK A01 T02310077  RH  037%=      5-min Rain = 0
KTA1 201331Z 21006KT 23/08 A2987 RMK A01 T02330076  RH  036%=      5-min Rain = 0
KTA1 201332Z 21007KT 24/07 A2987 RMK A01 T02350074  RH  036%=      5-min Rain = 0
KTA1 201333Z 22006KT 24/07 A2987 RMK A01 T02370074  RH  035%=      5-min Rain = 0
KTA1 201334Z 22006KT 24/07 A2987 RMK A01 T02390074  RH  035%=      5-min Rain = 0
KTA1 201335Z 21007KT 24/07 A2987 RMK A01 T02400070  RH  033%=      5-min Rain = 0
KTA1 201336Z 22009KT 24/07 A2987 RMK A01 T02420069  RH  033%=      5-min Rain = 0
KTA1 201337Z 22009KT 24/06 A2987 RMK A01 T02440064  RH  031%=      5-min Rain = 0
KTA1 201338Z 22009KT 25/06 A2987 RMK A01 T02450063  RH  031%=      5-min Rain = 0
KTA1 201339Z 21009KT 25/06 A2987 RMK A01 T02460063  RH  031%=      5-min Rain = 0
KTA1 201340Z 21009KT 25/06 A2987 RMK A01 T02470062  RH  031%=      5-min Rain = 0
KTA1 201341Z 21008KT 25/07 A2987 RMK A01 T02480065  RH  031%=      5-min Rain = 0
KTA1 201342Z 21008KT 25/07 A2987 RMK A01 T02490065  RH  031%=      5-min Rain = 0
KTA1 201343Z 21009KT 25/07 A2987 RMK A01 T02500066  RH  031%=      5-min Rain = 0
KTA1 201344Z 21009KT 25/07 A2987 RMK A01 T02500065  RH  030%=      5-min Rain = 0
KTA1 201345Z 21008KT 25/07 A2987 RMK A01 T02510065  RH  030%=      5-min Rain = 0
KTA1 201346Z 21008KT 25/07 A2987 RMK A01 T02520067  RH  031%=      5-min Rain = 0
KTA1 201347Z 21010KT 25/06 A2987 RMK A01 T02530064  RH  030%=      5-min Rain = 0
KTA1 201348Z 22009KT 25/06 A2987 RMK A01 T02530062  RH  029%=      5-min Rain = 0
KTA1 201349Z 21007KT 25/07 A2987 RMK A01 T02530065  RH  030%=      5-min Rain = 0
KTA1 201350Z 21009KT 25/07 A2987 RMK A01 T02540068  RH  030%=      5-min Rain = 0
KTA1 201351Z 21008KT 25/07 A2987 RMK A01 T02540068  RH  030%=      5-min Rain = 0
KTA1 201352Z 21007KT 26/07 A2987 RMK A01 T02550069  RH  030%=      5-min Rain = 0
KTA1 201353Z 20009KT 26/07 A2987 RMK A01 T02560067  RH  030%=      5-min Rain = 0
KTA1 201354Z 21007KT 26/07 A2987 RMK A01 T02570066  RH  030%=      5-min Rain = 0
KTA1 201355Z 20009KT 26/07 A2987 RMK A01 T02570069  RH  030%=      5-min Rain = 0
KTA1 201356Z 20009KT 26/07 A2987 RMK A01 T02590067  RH  029%=      5-min Rain = 0
KTA1 201357Z 20011KT 26/06 A2987 RMK A01 T02600064  RH  029%=      5-min Rain = 0
KTA1 201358Z 20011KT 26/07 A2987 RMK A01 T02610065  RH  029%=      5-min Rain = 0
KTA1 201359Z 21010KT 26/07 A2987 RMK A01 T02610066  RH  029%=      5-min Rain = 0
KTA1 201400Z 21009KT 26/07 A2987 RMK A01 T02620068  RH  029%=      5-min Rain = 0
KTA1 201401Z 21010KT 26/07 A2987 RMK A01 T02640069  RH  029%=      5-min Rain = 0
KTA1 201402Z 21009KT 26/07 A2987 RMK A01 T02640068  RH  029%=      5-min Rain = 0
KTA1 201403Z 21007KT 27/07 A2987 RMK A01 T02650072  RH  029%=      5-min Rain = 0
KTA1 201404Z 20007KT 27/08 A2987 RMK A01 T02660075  RH  030%=      5-min Rain = 0
KTA1 201405Z 20011KT 27/07 A2987 RMK A01 T02680069  RH  028%=      5-min Rain = 0
KTA1 201406Z 21009KT 27/07 A2987 RMK A01 T02680066  RH  028%=      5-min Rain = 0
KTA1 201407Z 21008KT 27/07 A2987 RMK A01 T02680067  RH  028%=      5-min Rain = 0
KTA1 201408Z 21009KT 27/07 A2987 RMK A01 T02680066  RH  028%=      5-min Rain = 0
KTA1 201409Z 21007KT 27/07 A2987 RMK A01 T02690068  RH  028%=      5-min Rain = 0
KTA1 201410Z 21008KT 27/07 A2987 RMK A01 T02700070  RH  028%=      5-min Rain = 0
KTA1 201411Z 21006KT 27/07 A2987 RMK A01 T02710067  RH  027%=      5-min Rain = 0
KTA1 201412Z 21008KT 27/07 A2987 RMK A01 T02720071  RH  028%=      5-min Rain = 0
KTA1 201413Z 21009KT 27/07 A2987 RMK A01 T02740070  RH  028%=      5-min Rain = 0
KTA1 201414Z 20010KT 28/07 A2987 RMK A01 T02750067  RH  027%=      5-min Rain = 0
KTA1 201415Z 20010KT 28/06 A2987 RMK A01 T02750063  RH  026%=      5-min Rain = 0
KTA1 201416Z 20008KT 28/07 A2987 RMK A01 T02750065  RH  026%=      5-min Rain = 0
KTA1 201417Z 20010KT 28/06 A2987 RMK A01 T02760064  RH  026%=      5-min Rain = 0
KTA1 201418Z 20010KT 28/06 A2987 RMK A01 T02770058  RH  025%=      5-min Rain = 0
KTA1 201419Z 20011KT 28/06 A2987 RMK A01 T02770059  RH  025%=      5-min Rain = 0
KTA1 201420Z 21010KT 28/06 A2987 RMK A01 T02780058  RH  025%=      5-min Rain = 0
KTA1 201421Z 20010KT 28/06 A2987 RMK A01 T02790060  RH  025%=      5-min Rain = 0
KTA1 201422Z 21011KT 28/06 A2987 RMK A01 T02800055  RH  024%=      5-min Rain = 0
KTA1 201423Z 21010KT 28/06 A2987 RMK A01 T02800055  RH  024%=      5-min Rain = 0
KTA1 201424Z 20009KT 28/06 A2987 RMK A01 T02810057  RH  024%=      5-min Rain = 0
KTA1 201425Z 20009KT 28/06 A2987 RMK A01 T02820059  RH  024%=      5-min Rain = 0
KTA1 201426Z 20008KT 28/06 A2987 RMK A01 T02830061  RH  024%=      5-min Rain = 0
KTA1 201427Z 20008KT 28/06 A2987 RMK A01 T02840062  RH  024%=      5-min Rain = 0
KTA1 201428Z 22008KT 29/07 A2987 RMK A01 T02850066  RH  025%=      5-min Rain = 0
KTA1 201429Z 21010KT 29/06 A2987 RMK A01 T02860057  RH  023%=      5-min Rain = 0
KTA1 201430Z 22011KT 29/05 A2987 RMK A01 T02860054  RH  023%=      5-min Rain = 0
KTA1 201431Z 22012KT 29/05 A2987 RMK A01 T02870053  RH  023%=      5-min Rain = 0
KTA1 201432Z 21010KT 29/05 A2987 RMK A01 T02870053  RH  023%=      5-min Rain = 0
KTA1 201433Z 21010KT 29/06 A2987 RMK A01 T02870056  RH  023%=      5-min Rain = 0
KTA1 201434Z 21011KT 29/06 A2987 RMK A01 T02890056  RH  023%=      5-min Rain = 0
KTA1 201435Z 21011KT 29/05 A2987 RMK A01 T02890054  RH  023%=      5-min Rain = 0
KTA1 201436Z 22010KT 29/06 A2987 RMK A01 T02890056  RH  023%=      5-min Rain = 0
KTA1 201437Z 22010KT 29/06 A2987 RMK A01 T02900058  RH  023%=      5-min Rain = 0
KTA1 201438Z 21011KT 29/06 A2987 RMK A01 T02900058  RH  023%=      5-min Rain = 0
KTA1 201439Z 21009KT 29/06 A2987 RMK A01 T02910060  RH  023%=      5-min Rain = 0
KTA1 201440Z 21009KT 29/06 A2987 RMK A01 T02920061  RH  023%=      5-min Rain = 0
KTA1 201441Z 22008KT 29/06 A2987 RMK A01 T02930064  RH  024%=      5-min Rain = 0
KTA1 201442Z 22009G14KT 30/07 A2987 RMK A01 T02950065  RH  024%=      5-min Rain = 0
KTA1 201443Z 22012KT 30/06 A2987 RMK A01 T02960055  RH  022%=      5-min Rain = 0
KTA1 201444Z 23012KT 30/05 A2987 RMK A01 T02950053  RH  022%=      5-min Rain = 0
KTA1 201445Z 22011KT 29/05 A2987 RMK A01 T02940054  RH  022%=      5-min Rain = 0
KTA1 201446Z 22013KT 29/06 A2987 RMK A01 T02940056  RH  022%=      5-min Rain = 0
KTA1 201447Z 22013KT 29/05 A2987 RMK A01 T02930054  RH  022%=      5-min Rain = 0
KTA1 201448Z 22012KT 29/05 A2987 RMK A01 T02930054  RH  022%=      5-min Rain = 0
KTA1 201449Z 21011KT 29/06 A2987 RMK A01 T02930057  RH  022%=      5-min Rain = 0
KTA1 201450Z 21013KT 29/06 A2987 RMK A01 T02930056  RH  022%=      5-min Rain = 0
KTA1 201451Z 22012KT 29/06 A2987 RMK A01 T02940056  RH  022%=      5-min Rain = 0
KTA1 201452Z 22010KT 29/06 A2987 RMK A01 T02930060  RH  023%=      5-min Rain = 0
KTA1 201453Z 22012KT 29/06 A2987 RMK A01 T02930060  RH  023%=      5-min Rain = 0
KTA1 201454Z 21011KT 29/06 A2987 RMK A01 T02940063  RH  023%=      5-min Rain = 0
KTA1 201455Z 21011KT 30/06 A2987 RMK A01 T02950063  RH  023%=      5-min Rain = 0
KTA1 201456Z 21011KT 30/07 A2987 RMK A01 T02960066  RH  024%=      5-min Rain = 0
KTA1 201457Z 21009KT 30/07 A2987 RMK A01 T02970068  RH  024%=      5-min Rain = 0
KTA1 201458Z 21011KT 30/07 A2987 RMK A01 T02990066  RH  023%=      5-min Rain = 0
KTA1 201459Z 21010KT 30/07 A2987 RMK A01 T03000068  RH  023%=      5-min Rain = 0
KTA1 201500Z 21010KT 30/07 A2987 RMK A01 T03000067  RH  023%=      5-min Rain = 0
KTA1 201501Z 22010KT 30/07 A2987 RMK A01 T03000068  RH  023%=      5-min Rain = 0
KTA1 201502Z 22011KT 30/07 A2987 RMK A01 T03000066  RH  023%=      5-min Rain = 0
KTA1 201503Z 22011KT 30/07 A2987 RMK A01 T03010068  RH  023%=      5-min Rain = 0
KTA1 201504Z 22009KT 30/07 A2987 RMK A01 T03020071  RH  023%=      5-min Rain = 0
KTA1 201505Z 22010KT 30/07 A2987 RMK A01 T03030069  RH  023%=      5-min Rain = 0
KTA1 201506Z 21013KT 31/07 A2987 RMK A01 T03050066  RH  022%=      5-min Rain = 0
KTA1 201507Z 22012KT 31/06 A2987 RMK A01 T03050062  RH  022%=      5-min Rain = 0
KTA1 201508Z 22012KT 31/06 A2987 RMK A01 T03050060  RH  021%=      5-min Rain = 0
KTA1 201509Z 23013KT 31/06 A2987 RMK A01 T03050060  RH  021%=      5-min Rain = 0
KTA1 201510Z 22012KT 31/06 A2987 RMK A01 T03050060  RH  021%=      5-min Rain = 0
KTA1 201511Z 21011KT 31/06 A2987 RMK A01 T03050063  RH  022%=      5-min Rain = 0
KTA1 201512Z 22008KT 31/07 A2987 RMK A01 T03060066  RH  022%=      5-min Rain = 0
KTA1 201513Z 21008KT 31/07 A2987 RMK A01 T03080071  RH  023%=      5-min Rain = 0
KTA1 201514Z 22009KT 31/07 A2987 RMK A01 T03110072  RH  023%=      5-min Rain = 0
KTA1 201515Z 22011KT 31/07 A2986 RMK A01 T03120066  RH  021%=      5-min Rain = 0
KTA1 201516Z 21011KT 31/06 A2986 RMK A01 T03110062  RH  021%=      5-min Rain = 0
KTA1 201517Z 22010KT 31/06 A2986 RMK A01 T03100064  RH  021%=      5-min Rain = 0
KTA1 201518Z 21010KT 31/06 A2986 RMK A01 T03110063  RH  021%=      5-min Rain = 0
KTA1 201519Z 22010KT 31/06 A2986 RMK A01 T03120063  RH  021%=      5-min Rain = 0
KTA1 201520Z 22012KT 31/06 A2986 RMK A01 T03130062  RH  021%=      5-min Rain = 0
KTA1 201521Z 21011KT 31/06 A2986 RMK A01 T03130059  RH  020%=      5-min Rain = 0
KTA1 201522Z 22011KT 31/06 A2986 RMK A01 T03130059  RH  020%=      5-min Rain = 0
KTA1 201523Z 21010KT 31/06 A2986 RMK A01 T03130060  RH  020%=      5-min Rain = 0
KTA1 201524Z 21010KT 31/06 A2986 RMK A01 T03130061  RH  021%=      5-min Rain = 0
KTA1 201525Z 22009KT 31/07 A2986 RMK A01 T03140066  RH  021%=      5-min Rain = 0
KTA1 201526Z 22009KT 32/07 A2986 RMK A01 T03160065  RH  021%=      5-min Rain = 0
KTA1 201527Z 23006KT 32/07 A2986 RMK A01 T03170069  RH  021%=      5-min Rain = 0
KTA1 201528Z 22009KT 32/07 A2986 RMK A01 T03200069  RH  021%=      5-min Rain = 0
KTA1 201529Z 22009KT 32/07 A2986 RMK A01 T03200069  RH  021%=      5-min Rain = 0
KTA1 201530Z 23008KT 32/07 A2986 RMK A01 T03200072  RH  021%=      5-min Rain = 0
KTA1 201531Z 23010KT 32/07 A2986 RMK A01 T03220070  RH  021%=      5-min Rain = 0
KTA1 201532Z 23008KT 32/07 A2986 RMK A01 T03220066  RH  020%=      5-min Rain = 0
KTA1 201533Z 21009KT 32/07 A2986 RMK A01 T03220069  RH  021%=      5-min Rain = 0
KTA1 201534Z 22008KT 32/07 A2986 RMK A01 T03220070  RH  021%=      5-min Rain = 0
KTA1 201535Z 22007KT 32/07 A2986 RMK A01 T03220071  RH  021%=      5-min Rain = 0
KTA1 201536Z 22007KT 32/08 A2986 RMK A01 T03220075  RH  022%=      5-min Rain = 0
KTA1 201537Z 21008KT 33/08 A2986 RMK A01 T03250075  RH  021%=      5-min Rain = 0
KTA1 201538Z 21010KT 33/07 A2986 RMK A01 T03280073  RH  021%=      5-min Rain = 0
KTA1 201539Z 21009KT 33/07 A2986 RMK A01 T03280066  RH  020%=      5-min Rain = 0
KTA1 201540Z 21011KT 33/06 A2986 RMK A01 T03290064  RH  019%=      5-min Rain = 0
KTA1 201541Z 21011KT 33/06 A2986 RMK A01 T03290062  RH  019%=      5-min Rain = 0
KTA1 201542Z 22011KT 33/06 A2986 RMK A01 T03290059  RH  019%=      5-min Rain = 0
KTA1 201543Z 23010KT 33/06 A2986 RMK A01 T03290063  RH  019%=      5-min Rain = 0
KTA1 201544Z 23008KT 33/07 A2986 RMK A01 T03290067  RH  020%=      5-min Rain = 0
KTA1 201545Z 22009KT 33/07 A2986 RMK A01 T03310071  RH  020%=      5-min Rain = 0
KTA1 201546Z 21010KT 33/07 A2986 RMK A01 T03330065  RH  019%=      5-min Rain = 0
KTA1 201547Z 21010KT 33/07 A2986 RMK A01 T03340068  RH  019%=      5-min Rain = 0
KTA1 201548Z 21009KT 33/07 A2986 RMK A01 T03340070  RH  019%=      5-min Rain = 0
KTA1 201549Z 21009KT 34/07 A2986 RMK A01 T03350072  RH  020%=      5-min Rain = 0
KTA1 201550Z 22008KT 34/08 A2986 RMK A01 T03360075  RH  020%=      5-min Rain = 0
KTA1 201551Z 20009KT 34/07 A2986 RMK A01 T03370073  RH  020%=      5-min Rain = 0
KTA1 201552Z 22009KT 34/07 A2986 RMK A01 T03380070  RH  019%=      5-min Rain = 0
KTA1 201553Z 21008KT 34/07 A2986 RMK A01 T03380068  RH  019%=      5-min Rain = 0
KTA1 201554Z 21009KT 34/07 A2986 RMK A01 T03400069  RH  019%=      5-min Rain = 0
KTA1 201555Z 21010KT 34/06 A2985 RMK A01 T03410061  RH  018%=      5-min Rain = 0
KTA1 201556Z 21011KT 34/06 A2985 RMK A01 T03390062  RH  018%=      5-min Rain = 0
KTA1 201557Z 22011KT 34/06 A2985 RMK A01 T03390058  RH  017%=      5-min Rain = 0
KTA1 201558Z 23010KT 34/06 A2985 RMK A01 T03390057  RH  017%=      5-min Rain = 0
KTA1 201559Z 23011KT 34/06 A2985 RMK A01 T03400061  RH  018%=      5-min Rain = 0
KTA1 201600Z 21008KT 34/06 A2985 RMK A01 T03410062  RH  018%=      5-min Rain = 0
KTA1 201601Z 22009KT 34/07 A2985 RMK A01 T03420068  RH  018%=      5-min Rain = 0
KTA1 201602Z 22008KT 34/06 A2985 RMK A01 T03440060  RH  017%=      5-min Rain = 0
KTA1 201603Z 21009KT 34/06 A2985 RMK A01 T03440057  RH  017%=      5-min Rain = 0
KTA1 201604Z 21007KT 35/06 A2985 RMK A01 T03460062  RH  017%=      5-min Rain = 0
KTA1 201605Z 21008KT 35/07 A2985 RMK A01 T03480066  RH  018%=      5-min Rain = 0
KTA1 201606Z 20009KT 35/06 A2985 RMK A01 T03490064  RH  017%=      5-min Rain = 0
KTA1 201607Z 21010KT 35/06 A2985 RMK A01 T03500058  RH  016%=      5-min Rain = 0
KTA1 201608Z 23008KT 35/06 A2985 RMK A01 T03490057  RH  016%=      5-min Rain = 0
KTA1 201609Z 22007KT 35/06 A2985 RMK A01 T03480059  RH  017%=      5-min Rain = 0
KTA1 201610Z 21010KT 35/06 A2985 RMK A01 T03480056  RH  016%=      5-min Rain = 0
KTA1 201611Z 23010KT 35/06 A2985 RMK A01 T03490057  RH  016%=      5-min Rain = 0
KTA1 201612Z 21012KT 35/05 A2985 RMK A01 T03490048  RH  015%=      5-min Rain = 0
KTA1 201613Z 22011KT 35/04 A2985 RMK A01 T03490043  RH  015%=      5-min Rain = 0
KTA1 201614Z 22011KT 35/04 A2985 RMK A01 T03490044  RH  015%=      5-min Rain = 0
KTA1 201615Z 22012KT 35/04 A2985 RMK A01 T03500039  RH  014%=      5-min Rain = 0
KTA1 201616Z 22011KT 35/04 A2985 RMK A01 T03500042  RH  015%=      5-min Rain = 0
KTA1 201617Z 21010KT 35/05 A2985 RMK A01 T03490053  RH  016%=      5-min Rain = 0
KTA1 201618Z 21012KT 35/05 A2985 RMK A01 T03500048  RH  015%=      5-min Rain = 0
KTA1 201619Z 21010KT 35/04 A2985 RMK A01 T03510041  RH  014%=      5-min Rain = 0
KTA1 201620Z 21009KT 35/05 A2985 RMK A01 T03520046  RH  015%=      5-min Rain = 0
KTA1 201621Z 21011KT 35/04 A2985 RMK A01 T03540040  RH  014%=      5-min Rain = 0
KTA1 201622Z 21012KT 35/04 A2985 RMK A01 T03540039  RH  014%=      5-min Rain = 0
KTA1 201623Z 21011KT 35/04 A2985 RMK A01 T03540041  RH  014%=      5-min Rain = 0
KTA1 201624Z 22011KT 36/03 A2985 RMK A01 T03550029  RH  013%=      5-min Rain = 0
KTA1 201625Z 21011KT 36/03 A2985 RMK A01 T03550030  RH  013%=      5-min Rain = 0
KTA1 201626Z 21009KT 36/03 A2985 RMK A01 T03550034  RH  013%=      5-min Rain = 0
KTA1 201627Z 22007KT 36/03 A2985 RMK A01 T03550033  RH  013%=      5-min Rain = 0
KTA1 201628Z 23012KT 36/02 A2985 RMK A01 T03570017  RH  012%=      5-min Rain = 0
KTA1 201629Z 22011KT 36/02 A2985 RMK A01 T03570020  RH  012%=      5-min Rain = 0
KTA1 201630Z 22011KT 36/01 A2985 RMK A01 T03580007  RH  011%=      5-min Rain = 0
KTA1 201631Z 21011KT 36/02 A2985 RMK A01 T03580020  RH  012%=      5-min Rain = 0
KTA1 201632Z 21011KT 36/01 A2985 RMK A01 T03590012  RH  011%=      5-min Rain = 0
KTA1 201633Z 22011KT 36/01 A2985 RMK A01 T03610010  RH  011%=      5-min Rain = 0
KTA1 201634Z 21012KT 36/02 A2985 RMK A01 T03610015  RH  011%=      5-min Rain = 0
KTA1 201635Z 21012KT 36/01 A2985 RMK A01 T03610010  RH  011%=      5-min Rain = 0
KTA1 201641Z 22010KT 36/03 A2986 RMK A01 T03590033  RH  013%=      5-min Rain = 0
KTA1 201642Z 21011KT 36/03 A2985 RMK A01 T03600032  RH  013%=      5-min Rain = 0
KTA1 201643Z 20013KT 36/02 A2985 RMK A01 T03610024  RH  012%=      5-min Rain = 0
KTA1 201644Z 21010KT 36/02 A2985 RMK A01 T03610019  RH  012%=      5-min Rain = 0
KTA1 201645Z 19010KT 36/02 A2985 RMK A01 T03630017  RH  011%=      5-min Rain = 0
KTA1 201646Z 19010KT 36/01 A2986 RMK A01 T03630013  RH  011%=      5-min Rain = 0
KTA1 201647Z 20011KT 36/02 A2986 RMK A01 T03610021  RH  012%=      5-min Rain = 0
KTA1 201648Z 20008KT 36/03 A2986 RMK A01 T03620032  RH  013%=      5-min Rain = 0
KTA1 201649Z 22008KT 36/03 A2986 RMK A01 T03640030  RH  012%=      5-min Rain = 0
KTA1 201650Z 21008KT 37/03 A2986 RMK A01 T03650032  RH  013%=      5-min Rain = 0
KTA1 201651Z 22011KT 37/03 A2985 RMK A01 T03660026  RH  012%=      5-min Rain = 0
KTA1 201652Z 22012KT 37/02 A2985 RMK A01 T03650019  RH  011%=      5-min Rain = 0
KTA1 201653Z 22011KT 37/02 A2986 RMK A01 T03650021  RH  012%=      5-min Rain = 0
KTA1 201654Z 21008KT 37/02 A2986 RMK A01 T03660024  RH  012%=      5-min Rain = 0
KTA1 201655Z 21009KT 37/03 A2986 RMK A01 T03670027  RH  012%=      5-min Rain = 0
KTA1 201656Z 24010KT 37/03 A2986 RMK A01 T03680031  RH  012%=      5-min Rain = 0
KTA1 201657Z 24008KT 37/03 A2986 RMK A01 T03670032  RH  012%=      5-min Rain = 0
KTA1 201658Z 23010G15KT 37/04 A2986 RMK A01 T03660036  RH  013%=      5-min Rain = 0
KTA1 201659Z 23012KT 37/03 A2986 RMK A01 T03680030  RH  012%=      5-min Rain = 0
KTA1 201700Z 24010KT 37/02 A2986 RMK A01 T03670023  RH  012%=      5-min Rain = 0
KTA1 201701Z 23010KT 37/02 A2986 RMK A01 T03650021  RH  012%=      5-min Rain = 0
KTA1 201702Z 23011KT 37/03 A2986 RMK A01 T03650026  RH  012%=      5-min Rain = 0
KTA1 201703Z 24008KT 37/03 A2986 RMK A01 T03660033  RH  013%=      5-min Rain = 0
KTA1 201704Z 20006KT 37/04 A2986 RMK A01 T03680038  RH  013%=      5-min Rain = 0
KTA1 201705Z 21011KT 37/03 A2986 RMK A01 T03730032  RH  012%=      5-min Rain = 0
KTA1 201706Z 23009KT 37/02 A2986 RMK A01 T03740023  RH  011%=      5-min Rain = 0
KTA1 201707Z 23008KT 37/03 A2986 RMK A01 T03730033  RH  012%=      5-min Rain = 0
KTA1 201708Z 24010KT 37/04 A2986 RMK A01 T03730040  RH  013%=      5-min Rain = 0
KTA1 201709Z 24011KT 37/03 A2986 RMK A01 T03700030  RH  012%=      5-min Rain = 0
KTA1 201710Z 22008KT 37/03 A2986 RMK A01 T03660032  RH  012%=      5-min Rain = 0
KTA1 201711Z 21007KT 37/03 A2986 RMK A01 T03660030  RH  012%=      5-min Rain = 0
KTA1 201712Z 22011KT 37/03 A2985 RMK A01 T03670030  RH  012%=      5-min Rain = 0
KTA1 201713Z 22010KT 37/03 A2986 RMK A01 T03690030  RH  012%=      5-min Rain = 0
KTA1 201714Z 20011KT 37/03 A2986 RMK A01 T03720029  RH  012%=      5-min Rain = 0
KTA1 201715Z 20008KT 37/02 A2986 RMK A01 T03720022  RH  011%=      5-min Rain = 0
KTA1 201716Z 21007KT 37/02 A2986 RMK A01 T03710024  RH  012%=      5-min Rain = 0
KTA1 201717Z 23007G12KT 37/03 A2986 RMK A01 T03720030  RH  012%=      5-min Rain = 0
KTA1 201718Z 23010KT 38/03 A2986 RMK A01 T03750027  RH  011%=      5-min Rain = 0
KTA1 201719Z 24008KT 38/03 A2985 RMK A01 T03760026  RH  011%=      5-min Rain = 0
KTA1 201720Z 24010KT 38/02 A2986 RMK A01 T03750023  RH  011%=      5-min Rain = 0
KTA1 201721Z 23010KT 37/02 A2985 RMK A01 T03730018  RH  011%=      5-min Rain = 0
KTA1 201722Z 20010KT 37/02 A2986 RMK A01 T03720016  RH  011%=      5-min Rain = 0
KTA1 201723Z 19010KT 37/02 A2985 RMK A01 T03720021  RH  011%=      5-min Rain = 0
KTA1 201724Z 20011KT 37/02 A2985 RMK A01 T03740018  RH  011%=      5-min Rain = 0
KTA1 201725Z 19009KT 38/01 A2985 RMK A01 T03750014  RH  011%=      5-min Rain = 0
KTA1 201726Z 19009KT 38/01 A2985 RMK A01 T03760012  RH  010%=      5-min Rain = 0
KTA1 201727Z 20009G14KT 38/01 A2985 RMK A01 T03760013  RH  010%=      5-min Rain = 0
KTA1 201728Z 22011KT 38/01 A2985 RMK A01 T03750005  RH  010%=      5-min Rain = 0
KTA1 201729Z 22009KT 37/00 A2985 RMK A01 T03740001  RH  010%=      5-min Rain = 0
KTA1 201730Z 22012KT 37/01 A2985 RMK A01 T03740005  RH  010%=      5-min Rain = 0
KTA1 201731Z 21011KT 37/00 A2985 RMK A01 T03730003  RH  010%=      5-min Rain = 0
KTA1 201732Z 20010KT 37/M00 A2985 RMK A01 T03721002  RH  009%=      5-min Rain = 0
KTA1 201733Z 22010KT 37/M00 A2985 RMK A01 T03721001  RH  010%=      5-min Rain = 0
KTA1 201734Z 23010KT 37/M00 A2985 RMK A01 T03731002  RH  009%=      5-min Rain = 0
KTA1 201735Z 23008KT 37/00 A2985 RMK A01 T03730002  RH  010%=      5-min Rain = 0
KTA1 201736Z 22007KT 37/M00 A2985 RMK A01 T03741003  RH  009%=      5-min Rain = 0
KTA1 201737Z 22010KT 38/01 A2985 RMK A01 T03750005  RH  010%=      5-min Rain = 0
KTA1 201738Z 24011KT 38/01 A2985 RMK A01 T03770008  RH  010%=      5-min Rain = 0
KTA1 201739Z 22012KT 37/01 A2985 RMK A01 T03740012  RH  010%=      5-min Rain = 0
KTA1 201740Z 20012KT 37/01 A2985 RMK A01 T03740008  RH  010%=      5-min Rain = 0
KTA1 201741Z 20013KT 38/01 A2985 RMK A01 T03750010  RH  010%=      5-min Rain = 0
KTA1 201742Z 20012KT 38/01 A2985 RMK A01 T03760008  RH  010%=      5-min Rain = 0
KTA1 201743Z 20010KT 38/01 A2985 RMK A01 T03760011  RH  010%=      5-min Rain = 0
KTA1 201744Z 19007KT 38/01 A2985 RMK A01 T03750010  RH  010%=      5-min Rain = 0
KTA1 201745Z 24010KT 38/01 A2985 RMK A01 T03770010  RH  010%=      5-min Rain = 0
KTA1 201746Z 24012KT 38/01 A2985 RMK A01 T03770012  RH  010%=      5-min Rain = 0
KTA1 201747Z 24011KT 38/01 A2985 RMK A01 T03750012  RH  010%=      5-min Rain = 0
KTA1 201748Z 22007KT 38/02 A2985 RMK A01 T03750016  RH  011%=      5-min Rain = 0
KTA1 201749Z 22008KT 38/01 A2985 RMK A01 T03780010  RH  010%=      5-min Rain = 0
KTA1 201750Z 24009KT 38/01 A2985 RMK A01 T03770008  RH  010%=      5-min Rain = 0
KTA1 201751Z 25011KT 38/01 A2985 RMK A01 T03770011  RH  010%=      5-min Rain = 0
KTA1 201752Z 25010KT 38/01 A2985 RMK A01 T03750008  RH  010%=      5-min Rain = 0
KTA1 201753Z 23007KT 37/01 A2985 RMK A01 T03730013  RH  010%=      5-min Rain = 0
KTA1 201754Z 24011KT 38/01 A2985 RMK A01 T03760011  RH  010%=      5-min Rain = 0
KTA1 201755Z 23009KT 38/01 A2985 RMK A01 T03750009  RH  010%=      5-min Rain = 0
KTA1 201756Z 25009KT 38/01 A2985 RMK A01 T03750013  RH  010%=      5-min Rain = 0
KTA1 201757Z 25007KT 38/02 A2985 RMK A01 T03750017  RH  011%=      5-min Rain = 0
KTA1 201758Z 24006KT 38/02 A2985 RMK A01 T03760018  RH  011%=      5-min Rain = 0
KTA1 201759Z 23006KT 38/01 A2985 RMK A01 T03780014  RH  010%=      5-min Rain = 0
KTA1 201800Z 21005KT 38/01 A2985 RMK A01 T03780013  RH  010%=      5-min Rain = 0
KTA1 201801Z 19007KT 38/02 A2985 RMK A01 T03800017  RH  010%=      5-min Rain = 0
KTA1 201802Z 19008KT 38/02 A2985 RMK A01 T03830022  RH  011%=      5-min Rain = 0
KTA1 201803Z 21006KT 39/02 A2985 RMK A01 T03860021  RH  010%=      5-min Rain = 0
KTA1 201804Z 22007KT 39/02 A2985 RMK A01 T03850016  RH  010%=      5-min Rain = 0
KTA1 201805Z 22009KT 38/02 A2985 RMK A01 T03820017  RH  010%=      5-min Rain = 0
KTA1 201806Z 23009KT 38/02 A2985 RMK A01 T03810019  RH  011%=      5-min Rain = 0
KTA1 201807Z 24011KT 38/02 A2984 RMK A01 T03820016  RH  010%=      5-min Rain = 0
KTA1 201808Z 23010KT 38/01 A2984 RMK A01 T03800014  RH  010%=      5-min Rain = 0
KTA1 201809Z 22011KT 38/02 A2984 RMK A01 T03800017  RH  010%=      5-min Rain = 0
KTA1 201810Z 22011KT 38/02 A2985 RMK A01 T03840017  RH  010%=      5-min Rain = 0
KTA1 201811Z 22007KT 38/01 A2984 RMK A01 T03830011  RH  010%=      5-min Rain = 0
KTA1 201812Z 20008G14KT 38/01 A2984 RMK A01 T03800014  RH  010%=      5-min Rain = 0
KTA1 201813Z 23008G13KT 38/02 A2984 RMK A01 T03820018  RH  010%=      5-min Rain = 0
KTA1 201814Z 22007KT 39/02 A2984 RMK A01 T03850022  RH  011%=      5-min Rain = 0
KTA1 201815Z 21008KT 39/01 A2984 RMK A01 T03860014  RH  010%=      5-min Rain = 0
KTA1 201816Z 21007KT 38/02 A2984 RMK A01 T03840016  RH  010%=      5-min Rain = 0
KTA1 201817Z 21009KT 38/02 A2984 RMK A01 T03830015  RH  010%=      5-min Rain = 0
KTA1 201818Z 21013KT 38/01 A2984 RMK A01 T03840011  RH  010%=      5-min Rain = 0
KTA1 201819Z 20012KT 39/01 A2984 RMK A01 T03850008  RH  009%=      5-min Rain = 0
KTA1 201820Z 20010KT 39/01 A2984 RMK A01 T03850010  RH  010%=      5-min Rain = 0
KTA1 201821Z 18010KT 39/01 A2984 RMK A01 T03860011  RH  010%=      5-min Rain = 0
KTA1 201822Z 20008KT 39/01 A2984 RMK A01 T03850006  RH  009%=      5-min Rain = 0
KTA1 201823Z 19009KT 39/01 A2984 RMK A01 T03850011  RH  010%=      5-min Rain = 0
KTA1 201824Z 20014KT 39/01 A2984 RMK A01 T03860012  RH  010%=      5-min Rain = 0
KTA1 201825Z 19012KT 39/01 A2984 RMK A01 T03880012  RH  010%=      5-min Rain = 0
KTA1 201826Z 19010KT 39/01 A2984 RMK A01 T03880007  RH  009%=      5-min Rain = 0
KTA1 201827Z 18010KT 39/01 A2984 RMK A01 T03860008  RH  009%=      5-min Rain = 0
KTA1 201828Z 19014KT 39/01 A2984 RMK A01 T03890008  RH  009%=      5-min Rain = 0
KTA1 201829Z 19013KT 39/00 A2984 RMK A01 T03900004  RH  009%=      5-min Rain = 0
KTA1 201830Z 21012G18KT 39/01 A2984 RMK A01 T03890008  RH  009%=      5-min Rain = 0
KTA1 201831Z 21012G18KT 39/01 A2984 RMK A01 T03890007  RH  009%=      5-min Rain = 0
KTA1 201832Z 17011KT 39/01 A2984 RMK A01 T03880006  RH  009%=      5-min Rain = 0
KTA1 201833Z 18008KT 39/01 A2984 RMK A01 T03880006  RH  009%=      5-min Rain = 0
KTA1 201834Z 20010G15KT 39/01 A2984 RMK A01 T03880006  RH  009%=      5-min Rain = 0
KTA1 201835Z 20013KT 39/01 A2984 RMK A01 T03880007  RH  009%=      5-min Rain = 0
KTA1 201836Z 20012KT 39/00 A2984 RMK A01 T03890002  RH  009%=      5-min Rain = 0
KTA1 201837Z 19008KT 39/00 A2984 RMK A01 T03890003  RH  009%=      5-min Rain = 0
KTA1 201838Z 21011KT 39/00 A2984 RMK A01 T03890004  RH  009%=      5-min Rain = 0
KTA1 201839Z 22013KT 39/00 A2984 RMK A01 T03890000  RH  009%=      5-min Rain = 0
KTA1 201840Z 21011KT 39/M01 A2984 RMK A01 T03901008  RH  008%=      5-min Rain = 0
KTA1 201841Z 21011KT 39/00 A2984 RMK A01 T03890001  RH  009%=      5-min Rain = 0
KTA1 201842Z 23011KT 39/01 A2984 RMK A01 T03910008  RH  009%=      5-min Rain = 0
KTA1 201843Z 21011KT 39/01 A2984 RMK A01 T03920008  RH  009%=      5-min Rain = 0
KTA1 201844Z 20009KT 39/01 A2983 RMK A01 T03900005  RH  009%=      5-min Rain = 0
KTA1 201845Z 19010G16KT 39/01 A2983 RMK A01 T03890005  RH  009%=      5-min Rain = 0
KTA1 201846Z 19011KT 39/00 A2983 RMK A01 T03910003  RH  009%=      5-min Rain = 0
KTA1 201847Z 19010KT 40/01 A2983 RMK A01 T03970010  RH  009%=      5-min Rain = 0
KTA1 201848Z 19013G18KT 40/00 A2983 RMK A01 T04010004  RH  008%=      5-min Rain = 0
KTA1 201849Z 20014KT 40/01 A2983 RMK A01 T04010006  RH  009%=      5-min Rain = 0
KTA1 201850Z 20011KT 40/00 A2983 RMK A01 T03960000  RH  008%=      5-min Rain = 0
KTA1 201851Z 19013KT 39/M00 A2983 RMK A01 T03921002  RH  009%=      5-min Rain = 0
KTA1 201852Z 20014KT 39/M00 A2983 RMK A01 T03931003  RH  008%=      5-min Rain = 0
KTA1 201853Z 19013KT 40/M00 A2983 RMK A01 T03951003  RH  008%=      5-min Rain = 0
KTA1 201854Z 18012KT 39/M01 A2983 RMK A01 T03921008  RH  008%=      5-min Rain = 0
KTA1 201855Z 18013KT 39/M01 A2983 RMK A01 T03921007  RH  008%=      5-min Rain = 0
KTA1 201856Z 19012KT 39/M01 A2983 RMK A01 T03921009  RH  008%=      5-min Rain = 0
KTA1 201857Z 19011KT 39/M01 A2983 RMK A01 T03931007  RH  008%=      5-min Rain = 0
KTA1 201858Z 20009KT 39/M00 A2983 RMK A01 T03931004  RH  008%=      5-min Rain = 0
KTA1 201859Z 20009G14KT 39/M00 A2983 RMK A01 T03941001  RH  009%=      5-min Rain = 0
KTA1 201900Z 20012KT 40/01 A2983 RMK A01 T03990007  RH  009%=      5-min Rain = 0
KTA1 201901Z 19013KT 40/00 A2983 RMK A01 T04010002  RH  008%=      5-min Rain = 0
KTA1 201902Z 18013KT 40/M00 A2983 RMK A01 T04001003  RH  008%=      5-min Rain = 0
KTA1 201903Z 21014KT 40/M00 A2983 RMK A01 T03991002  RH  008%=      5-min Rain = 0
KTA1 201904Z 20015KT 40/M00 A2983 RMK A01 T03991004  RH  008%=      5-min Rain = 0
KTA1 201905Z 19013G18KT 40/M01 A2983 RMK A01 T03981006  RH  008%=      5-min Rain = 0
KTA1 201906Z 20016KT 40/M01 A2983 RMK A01 T03971008  RH  008%=      5-min Rain = 0
KTA1 201907Z 20015KT 40/M01 A2983 RMK A01 T03971011  RH  008%=      5-min Rain = 0
KTA1 201908Z 19014KT 40/M01 A2983 RMK A01 T03961012  RH  008%=      5-min Rain = 0
KTA1 201909Z 20013KT 39/M01 A2983 RMK A01 T03941010  RH  008%=      5-min Rain = 0
KTA1 201910Z 20012KT 39/M01 A2983 RMK A01 T03941011  RH  008%=      5-min Rain = 0
KTA1 201911Z 20011KT 39/M01 A2983 RMK A01 T03931011  RH  008%=      5-min Rain = 0
KTA1 201912Z 21006KT 39/M01 A2983 RMK A01 T03911008  RH  008%=      5-min Rain = 0
KTA1 201913Z 21007G14KT 39/M00 A2983 RMK A01 T03901004  RH  008%=      5-min Rain = 0
KTA1 201914Z 20012G17KT 39/M00 A2983 RMK A01 T03941001  RH  009%=      5-min Rain = 0
KTA1 201915Z 19011KT 40/M00 A2983 RMK A01 T03961004  RH  008%=      5-min Rain = 0
KTA1 201916Z 20016G21KT 40/M00 A2983 RMK A01 T03961002  RH  008%=      5-min Rain = 0
KTA1 201917Z 19017KT 40/M00 A2983 RMK A01 T03961002  RH  008%=      5-min Rain = 0
KTA1 201918Z 19014KT 40/M00 A2983 RMK A01 T03951001  RH  008%=      5-min Rain = 0
KTA1 201919Z 18013KT 39/00 A2983 RMK A01 T039400-0  RH  009%=      5-min Rain = 0
KTA1 201920Z 18010KT 40/M00 A2983 RMK A01 T03951001  RH  008%=      5-min Rain = 0
KTA1 201921Z 18010KT 40/M00 A2983 RMK A01 T03951004  RH  008%=      5-min Rain = 0
KTA1 201922Z 19008G13KT 39/M01 A2983 RMK A01 T03911009  RH  008%=      5-min Rain = 0
KTA1 201923Z 19014KT 39/M00 A2983 RMK A01 T03891003  RH  009%=      5-min Rain = 0
KTA1 201924Z 19012KT 39/M00 A2983 RMK A01 T03931003  RH  008%=      5-min Rain = 0
KTA1 201925Z 19015KT 39/M01 A2983 RMK A01 T03941005  RH  008%=      5-min Rain = 0
KTA1 201926Z 19014KT 39/00 A2983 RMK A01 T039300-0  RH  009%=      5-min Rain = 0
KTA1 201927Z 21009KT 39/00 A2983 RMK A01 T03940002  RH  009%=      5-min Rain = 0
KTA1 201928Z 21008KT 40/M00 A2983 RMK A01 T03951003  RH  008%=      5-min Rain = 0
KTA1 201929Z 20011G16KT 39/00 A2982 RMK A01 T03930003  RH  009%=      5-min Rain = 0
KTA1 201930Z 17013G21KT 40/01 A2982 RMK A01 T03970009  RH  009%=      5-min Rain = 0
KTA1 201931Z 16015G22KT 40/00 A2983 RMK A01 T03990003  RH  008%=      5-min Rain = 0
KTA1 201932Z 16009KT 39/00 A2982 RMK A01 T03940002  RH  009%=      5-min Rain = 0
KTA1 201933Z 18012G17KT 39/01 A2982 RMK A01 T03920006  RH  009%=      5-min Rain = 0
KTA1 201934Z 20015KT 39/M00 A2982 RMK A01 T03921001  RH  009%=      5-min Rain = 0
KTA1 201935Z 18015KT 39/M00 A2982 RMK A01 T03941001  RH  008%=      5-min Rain = 0
KTA1 201936Z 19012G17KT 40/M00 A2982 RMK A01 T03961004  RH  008%=      5-min Rain = 0
KTA1 201937Z 18015G20KT 40/M01 A2982 RMK A01 T03961005  RH  008%=      5-min Rain = 0
KTA1 201938Z 18012KT 39/M01 A2982 RMK A01 T03931006  RH  008%=      5-min Rain = 0
KTA1 201939Z 19012KT 40/M00 A2982 RMK A01 T03961003  RH  008%=      5-min Rain = 0
KTA1 201940Z 20014KT 40/M01 A2982 RMK A01 T03971005  RH  008%=      5-min Rain = 0
KTA1 201941Z 18010KT 40/M01 A2982 RMK A01 T03961007  RH  008%=      5-min Rain = 0
KTA1 201942Z 21011G17KT 40/00 A2982 RMK A01 T03960001  RH  008%=      5-min Rain = 0
KTA1 201943Z 21015KT 40/M00 A2982 RMK A01 T03981004  RH  008%=      5-min Rain = 0
KTA1 201944Z 20013KT 40/M01 A2982 RMK A01 T03961008  RH  008%=      5-min Rain = 0
KTA1 201945Z 18012KT 40/M01 A2982 RMK A01 T03951008  RH  008%=      5-min Rain = 0
KTA1 201946Z 19010KT 39/M01 A2982 RMK A01 T03931013  RH  008%=      5-min Rain = 0
KTA1 201947Z 19008G13KT 39/M01 A2982 RMK A01 T03941005  RH  008%=      5-min Rain = 0
KTA1 201948Z 19009KT 40/M01 A2982 RMK A01 T03981008  RH  008%=      5-min Rain = 0
KTA1 201949Z 21012KT 40/M01 A2982 RMK A01 T03961005  RH  008%=      5-min Rain = 0
KTA1 201950Z 21015KT 40/00 A2982 RMK A01 T03980001  RH  008%=      5-min Rain = 0
KTA1 201951Z 22013KT 40/M00 A2982 RMK A01 T03991003  RH  008%=      5-min Rain = 0
KTA1 201952Z 22009G15KT 39/M01 A2982 RMK A01 T03941010  RH  008%=      5-min Rain = 0
KTA1 201953Z 21014KT 39/M01 A2982 RMK A01 T03921008  RH  008%=      5-min Rain = 0
KTA1 201954Z 21014KT 39/M01 A2982 RMK A01 T03921013  RH  008%=      5-min Rain = 0
KTA1 201955Z 21010KT 39/M02 A2982 RMK A01 T03911016  RH  008%=      5-min Rain = 0
KTA1 201956Z 21010KT 39/M01 A2982 RMK A01 T03921013  RH  008%=      5-min Rain = 0
KTA1 201957Z 19011KT 39/M01 A2982 RMK A01 T03921013  RH  008%=      5-min Rain = 0
KTA1 201958Z 20012KT 39/M01 A2982 RMK A01 T03931011  RH  008%=      5-min Rain = 0
KTA1 201959Z 21012KT 40/M02 A2982 RMK A01 T03951015  RH  008%=      5-min Rain = 0
KTA1 202000Z 23009KT 39/M01 A2982 RMK A01 T03941014  RH  008%=      5-min Rain = 0
KTA1 202001Z 23009KT 40/M01 A2982 RMK A01 T03951009  RH  008%=      5-min Rain = 0
KTA1 202002Z 23008KT 40/M01 A2982 RMK A01 T03961007  RH  008%=      5-min Rain = 0
KTA1 202003Z 21008KT 40/M00 A2982 RMK A01 T03951003  RH  008%=      5-min Rain = 0
KTA1 202004Z 21013G18KT 40/00 A2982 RMK A01 T03990002  RH  008%=      5-min Rain = 0
KTA1 202005Z 21016KT 40/M00 A2982 RMK A01 T04021002  RH  008%=      5-min Rain = 0
KTA1 202006Z 21008KT 40/M01 A2982 RMK A01 T03991007  RH  008%=      5-min Rain = 0
KTA1 202007Z 21009G14KT 39/M01 A2982 RMK A01 T03941006  RH  008%=      5-min Rain = 0
KTA1 202008Z 21011KT 39/M01 A2982 RMK A01 T03941009  RH  008%=      5-min Rain = 0
KTA1 202009Z 20007KT 39/M01 A2982 RMK A01 T03921011  RH  008%=      5-min Rain = 0
KTA1 202010Z 20008KT 39/M01 A2981 RMK A01 T03901005  RH  008%=      5-min Rain = 0
KTA1 202011Z 19009KT 39/M00 A2981 RMK A01 T03921002  RH  009%=      5-min Rain = 0
KTA1 202012Z 20006KT 40/M00 A2981 RMK A01 T03951001  RH  008%=      5-min Rain = 0
KTA1 202013Z 22012KT 40/M00 A2981 RMK A01 T03961002  RH  008%=      5-min Rain = 0
KTA1 202014Z 22015KT 40/M01 A2981 RMK A01 T03981005  RH  008%=      5-min Rain = 0
KTA1 202015Z 22016KT 40/M01 A2981 RMK A01 T04021005  RH  008%=      5-min Rain = 0
KTA1 202016Z 21013KT 40/M01 A2981 RMK A01 T04021012  RH  008%=      5-min Rain = 0
KTA1 202017Z 20013KT 40/M01 A2981 RMK A01 T03991009  RH  008%=      5-min Rain = 0
KTA1 202018Z 20011KT 40/M01 A2981 RMK A01 T03971012  RH  008%=      5-min Rain = 0
KTA1 202019Z 19014KT 40/M01 A2981 RMK A01 T03961010  RH  008%=      5-min Rain = 0
KTA1 202020Z 21011G16KT 40/M01 A2981 RMK A01 T03961010  RH  008%=      5-min Rain = 0
KTA1 202021Z 21014KT 40/M01 A2981 RMK A01 T03951010  RH  008%=      5-min Rain = 0
KTA1 202022Z 20013KT 40/M01 A2981 RMK A01 T03951008  RH  008%=      5-min Rain = 0
KTA1 202023Z 22011KT 40/M01 A2981 RMK A01 T03951005  RH  008%=      5-min Rain = 0
KTA1 202024Z 23010KT 40/M00 A2981 RMK A01 T03981004  RH  008%=      5-min Rain = 0
KTA1 202025Z 18009KT 40/M00 A2981 RMK A01 T03991002  RH  008%=      5-min Rain = 0
KTA1 202026Z 17008KT 40/M00 A2981 RMK A01 T04001002  RH  008%=      5-min Rain = 0
KTA1 202027Z 17008KT 40/M00 A2981 RMK A01 T04011001  RH  008%=      5-min Rain = 0
KTA1 202028Z 18008G13KT 40/00 A2981 RMK A01 T040100-0  RH  008%=      5-min Rain = 0
KTA1 202029Z 19014KT 40/00 A2981 RMK A01 T040100-0  RH  008%=      5-min Rain = 0
KTA1 202030Z 20013G18KT 40/M00 A2981 RMK A01 T03991002  RH  008%=      5-min Rain = 0
KTA1 202031Z 18012KT 40/M00 A2981 RMK A01 T03991001  RH  008%=      5-min Rain = 0
KTA1 202032Z 23006KT 40/M00 A2981 RMK A01 T04011003  RH  008%=      5-min Rain = 0
KTA1 202033Z 22013G25KT 40/M00 A298 RMK A01 T04021002  RH  008%=      5-min Rain = 0
KTA1 202034Z 18012KT 40/00 A298 RMK A01 T04040001  RH  008%=      5-min Rain = 0
KTA1 202035Z 20012KT 41/M00 A2981 RMK A01 T04051001  RH  008%=      5-min Rain = 0
KTA1 202036Z 19011KT 40/M01 A2981 RMK A01 T04021005  RH  008%=      5-min Rain = 0
KTA1 202037Z 20011KT 40/M00 A298 RMK A01 T03981004  RH  008%=      5-min Rain = 0
KTA1 202038Z 20015KT 40/M01 A298 RMK A01 T04001005  RH  008%=      5-min Rain = 0
KTA1 202039Z 19017KT 40/M01 A298 RMK A01 T04031011  RH  008%=      5-min Rain = 0
KTA1 202040Z 19016KT 40/M01 A298 RMK A01 T04041012  RH  007%=      5-min Rain = 0
KTA1 202041Z 19016KT 40/M02 A298 RMK A01 T04021015  RH  007%=      5-min Rain = 0
KTA1 202042Z 20012KT 40/M01 A298 RMK A01 T04011014  RH  007%=      5-min Rain = 0
KTA1 202043Z 23009KT 40/M01 A298 RMK A01 T04011012  RH  008%=      5-min Rain = 0
KTA1 202044Z 22011KT 40/M01 A298 RMK A01 T04021011  RH  008%=      5-min Rain = 0
KTA1 202045Z 21013KT 40/M01 A298 RMK A01 T04031009  RH  008%=      5-min Rain = 0
KTA1 202046Z 21013KT 40/M02 A298 RMK A01 T04041015  RH  007%=      5-min Rain = 0
KTA1 202047Z 24013KT 40/M01 A298 RMK A01 T04001014  RH  008%=      5-min Rain = 0
KTA1 202048Z 23011KT 40/M01 A298 RMK A01 T03991012  RH  008%=      5-min Rain = 0
KTA1 202049Z 22010KT 40/M01 A298 RMK A01 T03991011  RH  008%=      5-min Rain = 0
KTA1 202050Z 22010G15KT 40/M01 A298 RMK A01 T04011011  RH  008%=      5-min Rain = 0
KTA1 202051Z 24010KT 40/M01 A298 RMK A01 T04031008  RH  008%=      5-min Rain = 0
KTA1 202052Z 23010KT 40/M01 A298 RMK A01 T04031012  RH  007%=      5-min Rain = 0
KTA1 202053Z 24013KT 40/M01 A298 RMK A01 T04001007  RH  008%=      5-min Rain = 0
KTA1 202054Z 25007KT 40/M01 A298 RMK A01 T03981008  RH  008%=      5-min Rain = 0
KTA1 202055Z 23011KT 40/M01 A298 RMK A01 T03971005  RH  008%=      5-min Rain = 0
KTA1 202056Z 23015KT 40/M02 A298 RMK A01 T03981015  RH  008%=      5-min Rain = 0
KTA1 202057Z 23015KT 40/M02 A2979 RMK A01 T03981019  RH  007%=      5-min Rain = 0
KTA1 202058Z 22011KT 40/M02 A2979 RMK A01 T03971023  RH  007%=      5-min Rain = 0
KTA1 202059Z 23012G17KT 40/M01 A2979 RMK A01 T03971013  RH  008%=      5-min Rain = 0
KTA1 202100Z 22016G21KT 40/M01 A2979 RMK A01 T04011007  RH  008%=      5-min Rain = 0
KTA1 202101Z 22019KT 40/M01 A2979 RMK A01 T04031014  RH  007%=      5-min Rain = 0
KTA1 202102Z 21012KT 40/M02 A2979 RMK A01 T04031017  RH  007%=      5-min Rain = 0
KTA1 202103Z 19013KT 40/M02 A2979 RMK A01 T04021016  RH  007%=      5-min Rain = 0
KTA1 202104Z 19011KT 40/M02 A2979 RMK A01 T04011015  RH  007%=      5-min Rain = 0
KTA1 202105Z 19013G19KT 40/M02 A2979 RMK A01 T03991015  RH  007%=      5-min Rain = 0
KTA1 202106Z 20018KT 40/M01 A2979 RMK A01 T04001010  RH  008%=      5-min Rain = 0
KTA1 202107Z 20017KT 40/M01 A2979 RMK A01 T04011014  RH  007%=      5-min Rain = 0
KTA1 202108Z 22013G20KT 40/M01 A2979 RMK A01 T04011009  RH  008%=      5-min Rain = 0
KTA1 202109Z 22016G21KT 40/M01 A2979 RMK A01 T04031011  RH  008%=      5-min Rain = 0
KTA1 202110Z 22016KT 40/M01 A2979 RMK A01 T04021012  RH  008%=      5-min Rain = 0
KTA1 202111Z 22014G20KT 40/M01 A2979 RMK A01 T04021012  RH  008%=      5-min Rain = 0
KTA1 202112Z 21014KT 40/M01 A2979 RMK A01 T04021011  RH  008%=      5-min Rain = 0
KTA1 202113Z 20016KT 40/M01 A2979 RMK A01 T04041009  RH  008%=      5-min Rain = 0
KTA1 202114Z 20015KT 40/M01 A2979 RMK A01 T04041012  RH  007%=      5-min Rain = 0
KTA1 202115Z 20012KT 40/M01 A2979 RMK A01 T04021014  RH  007%=      5-min Rain = 0
KTA1 202116Z 21012KT 40/M01 A2979 RMK A01 T04001011  RH  008%=      5-min Rain = 0
KTA1 202117Z 21009KT 40/M01 A2978 RMK A01 T04001013  RH  008%=      5-min Rain = 0
KTA1 202118Z 19009KT 40/M01 A2978 RMK A01 T03991008  RH  008%=      5-min Rain = 0
KTA1 202119Z 20009KT 40/M01 A2978 RMK A01 T04001007  RH  008%=      5-min Rain = 0
KTA1 202120Z 20009G14KT 40/M00 A2978 RMK A01 T04021003  RH  008%=      5-min Rain = 0
KTA1 202121Z 22012KT 41/M00 A2978 RMK A01 T04061002  RH  008%=      5-min Rain = 0
KTA1 202122Z 23014KT 41/00 A2978 RMK A01 T04050000  RH  008%=      5-min Rain = 0
KTA1 202123Z 21014KT 41/M00 A2978 RMK A01 T04051001  RH  008%=      5-min Rain = 0
KTA1 202124Z 21014KT 41/M00 A2978 RMK A01 T04051002  RH  008%=      5-min Rain = 0
KTA1 202125Z 22013KT 41/M01 A2978 RMK A01 T04051006  RH  008%=      5-min Rain = 0
KTA1 202126Z 25014G19KT 40/M00 A2978 RMK A01 T04041003  RH  008%=      5-min Rain = 0
KTA1 202127Z 23015G21KT 40/00 A2978 RMK A01 T04040004  RH  008%=      5-min Rain = 0
KTA1 202128Z 20012KT 41/00 A2978 RMK A01 T04050001  RH  008%=      5-min Rain = 0
KTA1 202129Z 22013KT 41/00 A2978 RMK A01 T04060000  RH  008%=      5-min Rain = 0
KTA1 202130Z 23018KT 41/M00 A2978 RMK A01 T04061002  RH  008%=      5-min Rain = 0
KTA1 202131Z 26015KT 41/M01 A2978 RMK A01 T04051006  RH  008%=      5-min Rain = 0
KTA1 202132Z 26014KT 40/M01 A2978 RMK A01 T04041005  RH  008%=      5-min Rain = 0
KTA1 202133Z 25013KT 40/M01 A2978 RMK A01 T04011010  RH  008%=      5-min Rain = 0
KTA1 202134Z 26011KT 40/M00 A2978 RMK A01 T03991003  RH  008%=      5-min Rain = 0
KTA1 202135Z 26012KT 40/M01 A2978 RMK A01 T04011005  RH  008%=      5-min Rain = 0
KTA1 202136Z 25011KT 40/M00 A2978 RMK A01 T04011004  RH  008%=      5-min Rain = 0
KTA1 202137Z 25017G23KT 40/00 A2978 RMK A01 T040200-0  RH  008%=      5-min Rain = 0
KTA1 202138Z 24017KT 40/M01 A2978 RMK A01 T04011005  RH  008%=      5-min Rain = 0
KTA1 202139Z 24014KT 40/M00 A2978 RMK A01 T04001002  RH  008%=      5-min Rain = 0
KTA1 202140Z 24014G19KT 40/M00 A2978 RMK A01 T04011001  RH  008%=      5-min Rain = 0
KTA1 202141Z 26016KT 40/M00 A2977 RMK A01 T04021001  RH  008%=      5-min Rain = 0
KTA1 202142Z 26012KT 40/M00 A2978 RMK A01 T04021004  RH  008%=      5-min Rain = 0
KTA1 202143Z 25012KT 40/M00 A2977 RMK A01 T04011004  RH  008%=      5-min Rain = 0
KTA1 202144Z 24015KT 40/00 A2978 RMK A01 T04010000  RH  008%=      5-min Rain = 0
KTA1 202145Z 23015G20KT 40/M00 A2977 RMK A01 T04021004  RH  008%=      5-min Rain = 0
KTA1 202146Z 24016KT 40/M01 A2977 RMK A01 T04021005  RH  008%=      5-min Rain = 0
KTA1 202147Z 25016KT 40/00 A2977 RMK A01 T040100-0  RH  008%=      5-min Rain = 0
KTA1 202148Z 25016KT 40/M00 A2977 RMK A01 T04001003  RH  008%=      5-min Rain = 0
KTA1 202149Z 23013G19KT 40/M00 A2977 RMK A01 T03991004  RH  008%=      5-min Rain = 0
KTA1 202150Z 22016KT 40/M01 A2977 RMK A01 T04011005  RH  008%=      5-min Rain = 0
KTA1 202151Z 21017KT 40/M01 A2977 RMK A01 T04031006  RH  008%=      5-min Rain = 0
KTA1 202152Z 20015KT 40/M01 A2977 RMK A01 T04031008  RH  008%=      5-min Rain = 0
KTA1 202153Z 20018G23KT 40/M01 A2977 RMK A01 T04031007  RH  008%=      5-min Rain = 0
KTA1 202154Z 21013G18KT 40/M01 A2977 RMK A01 T04021008  RH  008%=      5-min Rain = 0
KTA1 202155Z 22015KT 40/M00 A2977 RMK A01 T04021004  RH  008%=      5-min Rain = 0
KTA1 202156Z 22016KT 40/M01 A2977 RMK A01 T04031006  RH  008%=      5-min Rain = 0
KTA1 202157Z 21012KT 40/M01 A2977 RMK A01 T04021005  RH  008%=      5-min Rain = 0
KTA1 202158Z 21011KT 40/M00 A2977 RMK A01 T04021001  RH  008%=      5-min Rain = 0
KTA1 202159Z 21012KT 41/00 A2977 RMK A01 T04080003  RH  008%=      5-min Rain = 0
KTA1 202200Z 23011G16KT 41/00 A2977 RMK A01 T04090000  RH  008%=      5-min Rain = 0
KTA1 202201Z 24017G22KT 41/00 A2977 RMK A01 T04090001  RH  008%=      5-min Rain = 0
KTA1 202202Z 24017G22KT 41/M00 A2977 RMK A01 T04051003  RH  008%=      5-min Rain = 0
KTA1 202203Z 22013G18KT 40/M01 A2977 RMK A01 T04041007  RH  008%=      5-min Rain = 0
KTA1 202204Z 23018G26KT 40/M01 A2977 RMK A01 T04041009  RH  008%=      5-min Rain = 0
KTA1 202205Z 24020G25KT 40/M02 A2977 RMK A01 T04041015  RH  007%=      5-min Rain = 0
KTA1 202206Z 23013KT 40/M02 A2977 RMK A01 T04031017  RH  007%=      5-min Rain = 0
KTA1 202207Z 22010KT 40/M01 A2977 RMK A01 T04031011  RH  008%=      5-min Rain = 0
KTA1 202208Z 22012KT 41/M02 A2977 RMK A01 T04061016  RH  007%=      5-min Rain = 0
KTA1 202209Z 22017KT 41/M02 A2977 RMK A01 T04061018  RH  007%=      5-min Rain = 0
KTA1 202210Z 23013KT 40/M02 A2977 RMK A01 T04041018  RH  007%=      5-min Rain = 0
KTA1 202211Z 24014KT 40/M01 A2977 RMK A01 T04041013  RH  007%=      5-min Rain = 0
KTA1 202212Z 24014G19KT 40/M01 A2977 RMK A01 T04031014  RH  007%=      5-min Rain = 0
KTA1 202213Z 22013KT 40/M01 A2977 RMK A01 T04021013  RH  007%=      5-min Rain = 0
KTA1 202214Z 25015KT 40/M01 A2977 RMK A01 T04041005  RH  008%=      5-min Rain = 0
KTA1 202215Z 24019KT 41/M00 A2977 RMK A01 T04061004  RH  008%=      5-min Rain = 0
KTA1 202216Z 24018KT 40/M01 A2977 RMK A01 T04041008  RH  008%=      5-min Rain = 0
KTA1 202217Z 25014KT 40/M01 A2977 RMK A01 T04011010  RH  008%=      5-min Rain = 0
KTA1 202218Z 24011KT 40/M00 A2977 RMK A01 T04011002  RH  008%=      5-min Rain = 0
KTA1 202219Z 25015KT 40/00 A2977 RMK A01 T04030002  RH  008%=      5-min Rain = 0
KTA1 202220Z 25015KT 41/M00 A2977 RMK A01 T04051003  RH  008%=      5-min Rain = 0
KTA1 202221Z 23010G15KT 40/M00 A2977 RMK A01 T04041003  RH  008%=      5-min Rain = 0
KTA1 202222Z 24015KT 41/00 A2977 RMK A01 T04060001  RH  008%=      5-min Rain = 0
KTA1 202223Z 25019G25KT 41/M01 A2976 RMK A01 T04051006  RH  008%=      5-min Rain = 0
KTA1 202224Z 23016G25KT 40/M00 A2977 RMK A01 T04031004  RH  008%=      5-min Rain = 0
KTA1 202225Z 23017KT 40/M00 A2977 RMK A01 T04041004  RH  008%=      5-min Rain = 0
KTA1 202226Z 25017G23KT 41/00 A2976 RMK A01 T040500-0  RH  008%=      5-min Rain = 0
KTA1 202227Z 25018KT 40/M00 A2976 RMK A01 T04041004  RH  008%=      5-min Rain = 0
KTA1 202228Z 24019KT 40/M01 A2976 RMK A01 T04021006  RH  008%=      5-min Rain = 0
KTA1 202229Z 23013G18KT 40/M00 A2977 RMK A01 T04011003  RH  008%=      5-min Rain = 0
KTA1 202230Z 24012KT 40/M00 A2977 RMK A01 T04031001  RH  008%=      5-min Rain = 0
KTA1 202231Z 24012G18KT 40/00 A2976 RMK A01 T04030003  RH  008%=      5-min Rain = 0
KTA1 202232Z 24015KT 40/M00 A2976 RMK A01 T04031004  RH  008%=      5-min Rain = 0
KTA1 202233Z 24012G19KT 40/00 A2976 RMK A01 T040300-0  RH  008%=      5-min Rain = 0
KTA1 202234Z 24015KT 40/00 A2976 RMK A01 T04040000  RH  008%=      5-min Rain = 0
KTA1 202235Z 25016KT 40/M00 A2976 RMK A01 T04041002  RH  008%=      5-min Rain = 0
KTA1 202236Z 24015KT 40/M01 A2976 RMK A01 T04011005  RH  008%=      5-min Rain = 0
KTA1 202237Z 25014G19KT 40/M01 A2976 RMK A01 T04001006  RH  008%=      5-min Rain = 0
KTA1 202238Z 25016KT 40/M01 A2976 RMK A01 T03991005  RH  008%=      5-min Rain = 0
KTA1 202239Z 25014KT 40/M00 A2976 RMK A01 T04001003  RH  008%=      5-min Rain = 0
KTA1 202240Z 23015G20KT 40/00 A2976 RMK A01 T04020003  RH  008%=      5-min Rain = 0
KTA1 202241Z 23014KT 40/M00 A2976 RMK A01 T04031003  RH  008%=      5-min Rain = 0
KTA1 202242Z 24012KT 40/M00 A2976 RMK A01 T04031004  RH  008%=      5-min Rain = 0
KTA1 202243Z 25013KT 40/00 A2976 RMK A01 T04040001  RH  008%=      5-min Rain = 0
KTA1 202244Z 25016KT 40/M00 A2976 RMK A01 T04041004  RH  008%=      5-min Rain = 0
KTA1 202245Z 25014KT 40/M00 A2976 RMK A01 T04031004  RH  008%=      5-min Rain = 0
KTA1 202246Z 24014KT 40/M00 A2976 RMK A01 T04021003  RH  008%=      5-min Rain = 0
KTA1 202247Z 24012KT 40/M00 A2976 RMK A01 T04011002  RH  008%=      5-min Rain = 0
KTA1 202248Z 23010KT 40/00 A2976 RMK A01 T04000001  RH  008%=      5-min Rain = 0
KTA1 202249Z 25010KT 40/M01 A2976 RMK A01 T04011005  RH  008%=      5-min Rain = 0
KTA1 202250Z 25008KT 40/M00 A2976 RMK A01 T04001004  RH  008%=      5-min Rain = 0
KTA1 202251Z 26011KT 40/M00 A2976 RMK A01 T03991003  RH  008%=      5-min Rain = 0
KTA1 202252Z 26010KT 40/M00 A2976 RMK A01 T04001004  RH  008%=      5-min Rain = 0
KTA1 202253Z 25007KT 40/M01 A2975 RMK A01 T04011006  RH  008%=      5-min Rain = 0
KTA1 202254Z 19014G19KT 40/M01 A2975 RMK A01 T04011006  RH  008%=      5-min Rain = 0
KTA1 202255Z 20015G21KT 40/M00 A2976 RMK A01 T04011001  RH  008%=      5-min Rain = 0
KTA1 202256Z 21017KT 40/M00 A2976 RMK A01 T04031004  RH  008%=      5-min Rain = 0
KTA1 202257Z 22017KT 40/M01 A2976 RMK A01 T04021006  RH  008%=      5-min Rain = 0
KTA1 202258Z 22013KT 40/M01 A2976 RMK A01 T04011005  RH  008%=      5-min Rain = 0
KTA1 202259Z 19013KT 40/M01 A2976 RMK A01 T04011005  RH  008%=      5-min Rain = 0
KTA1 202300Z 20013KT 40/M01 A2976 RMK A01 T04011006  RH  008%=      5-min Rain = 0
KTA1 202301Z 20010KT 40/M01 A2976 RMK A01 T03991007  RH  008%=      5-min Rain = 0
KTA1 202302Z 20013KT 40/M00 A2976 RMK A01 T03991004  RH  008%=      5-min Rain = 0
KTA1 202303Z 21010KT 40/M01 A2976 RMK A01 T03981005  RH  008%=      5-min Rain = 0
KTA1 202304Z 20011G16KT 40/00 A2976 RMK A01 T039900-0  RH  008%=      5-min Rain = 0
KTA1 202305Z 22011KT 40/M00 A2976 RMK A01 T04001001  RH  008%=      5-min Rain = 0
KTA1 202306Z 21012KT 40/M00 A2976 RMK A01 T03981004  RH  008%=      5-min Rain = 0
KTA1 202307Z 22014KT 39/M01 A2976 RMK A01 T03941006  RH  008%=      5-min Rain = 0
KTA1 202308Z 23010KT 39/M01 A2976 RMK A01 T03901006  RH  008%=      5-min Rain = 0
KTA1 202309Z 21008KT 39/M01 A2976 RMK A01 T03901005  RH  008%=      5-min Rain = 0
KTA1 202310Z 22010KT 39/M00 A2975 RMK A01 T03921004  RH  008%=      5-min Rain = 0
KTA1 202311Z 21010KT 39/M00 A2975 RMK A01 T03941004  RH  008%=      5-min Rain = 0
KTA1 202312Z 21008KT 40/M00 A2975 RMK A01 T03961004  RH  008%=      5-min Rain = 0
KTA1 202313Z 22009KT 40/M00 A2975 RMK A01 T03981001  RH  008%=      5-min Rain = 0
KTA1 202314Z 21009KT 40/00 A2975 RMK A01 T04000001  RH  008%=      5-min Rain = 0
KTA1 202315Z 21010KT 40/00 A2975 RMK A01 T04010003  RH  008%=      5-min Rain = 0
KTA1 202316Z 21012KT 40/00 A2975 RMK A01 T04020002  RH  008%=      5-min Rain = 0
KTA1 202317Z 22015KT 40/00 A2975 RMK A01 T04020000  RH  008%=      5-min Rain = 0
KTA1 202318Z 23012KT 40/M00 A2975 RMK A01 T03991002  RH  008%=      5-min Rain = 0
KTA1 202319Z 22010KT 40/M00 A2975 RMK A01 T03951003  RH  008%=      5-min Rain = 0
KTA1 202320Z 24011G16KT 39/M00 A2975 RMK A01 T03921002  RH  008%=      5-min Rain = 0
KTA1 202321Z 22012KT 39/M00 A2975 RMK A01 T03901001  RH  009%=      5-min Rain = 0
KTA1 202322Z 21011KT 39/M00 A2975 RMK A01 T03891003  RH  009%=      5-min Rain = 0
KTA1 202323Z 21010KT 39/M00 A2975 RMK A01 T03871004  RH  009%=      5-min Rain = 0
KTA1 202324Z 21011KT 39/M00 A2975 RMK A01 T03871003  RH  009%=      5-min Rain = 0
KTA1 202325Z 22008KT 39/M00 A2975 RMK A01 T03861004  RH  009%=      5-min Rain = 0
KTA1 202326Z 21008KT 39/M00 A2975 RMK A01 T03861002  RH  009%=      5-min Rain = 0
KTA1 202327Z 21012G17KT 39/M00 A2975 RMK A01 T03851003  RH  009%=      5-min Rain = 0
KTA1 202328Z 22010KT 39/M00 A2975 RMK A01 T03851004  RH  009%=      5-min Rain = 0
KTA1 202329Z 21009KT 38/M00 A2975 RMK A01 T03841002  RH  009%=      5-min Rain = 0
KTA1 202330Z 23009KT 38/M00 A2975 RMK A01 T03841002  RH  009%=      5-min Rain = 0
KTA1 202331Z 22012KT 39/M01 A2975 RMK A01 T03851005  RH  009%=      5-min Rain = 0
KTA1 202332Z 22012KT 39/M01 A2975 RMK A01 T03881006  RH  008%=      5-min Rain = 0
KTA1 202333Z 22011KT 39/M01 A2975 RMK A01 T03911006  RH  008%=      5-min Rain = 0
KTA1 202334Z 23010KT 39/M01 A2974 RMK A01 T03921005  RH  008%=      5-min Rain = 0
KTA1 202335Z 20013KT 40/00 A2974 RMK A01 T039500-0  RH  009%=      5-min Rain = 0
KTA1 202336Z 22012G19KT 40/00 A2974 RMK A01 T03970001  RH  009%=      5-min Rain = 0
KTA1 202337Z 22014KT 40/M00 A2974 RMK A01 T03981001  RH  008%=      5-min Rain = 0
KTA1 202338Z 21011KT 40/00 A2974 RMK A01 T03970001  RH  008%=      5-min Rain = 0
KTA1 202339Z 21012KT 40/00 A2974 RMK A01 T03970004  RH  009%=      5-min Rain = 0
KTA1 202340Z 22011G17KT 40/00 A2974 RMK A01 T03980004  RH  009%=      5-min Rain = 0
KTA1 202341Z 23018KT 40/01 A2974 RMK A01 T03970006  RH  009%=      5-min Rain = 0
KTA1 202342Z 23015G20KT 40/00 A2974 RMK A01 T03960003  RH  009%=      5-min Rain = 0
KTA1 202343Z 22015G20KT 39/00 A2974 RMK A01 T03930002  RH  009%=      5-min Rain = 0
KTA1 202344Z 22016KT 39/M00 A2974 RMK A01 T03911004  RH  008%=      5-min Rain = 0
KTA1 202345Z 22013G18KT 39/M01 A2974 RMK A01 T03881008  RH  008%=      5-min Rain = 0
KTA1 202346Z 22012G17KT 39/M01 A2974 RMK A01 T03861006  RH  009%=      5-min Rain = 0
KTA1 202347Z 22012KT 39/M01 A2974 RMK A01 T03851006  RH  009%=      5-min Rain = 0
KTA1 202348Z 22012KT 39/M01 A2974 RMK A01 T03851008  RH  008%=      5-min Rain = 0
KTA1 202349Z 22013KT 39/M01 A2974 RMK A01 T03851006  RH  009%=      5-min Rain = 0
KTA1 202350Z 21012KT 39/M01 A2974 RMK A01 T03851005  RH  009%=      5-min Rain = 0
KTA1 202351Z 22014KT 39/M01 A2974 RMK A01 T03871005  RH  009%=      5-min Rain = 0
KTA1 202352Z 21016KT 39/M01 A2974 RMK A01 T03901008  RH  008%=      5-min Rain = 0
KTA1 202353Z 22014KT 39/M01 A2974 RMK A01 T03921007  RH  008%=      5-min Rain = 0
KTA1 202354Z 22014KT 39/M00 A2974 RMK A01 T03931004  RH  008%=      5-min Rain = 0
KTA1 202355Z 21014G19KT 40/M00 A2974 RMK A01 T03951004  RH  008%=      5-min Rain = 0
KTA1 202356Z 21014KT 40/M01 A2974 RMK A01 T03971006  RH  008%=      5-min Rain = 0
KTA1 202357Z 22017KT 40/M01 A2974 RMK A01 T03971006  RH  008%=      5-min Rain = 0
KTA1 202358Z 21015KT 40/M01 A2974 RMK A01 T03971011  RH  008%=      5-min Rain = 0
KTA1 202359Z 21016KT 40/M01 A2974 RMK A01 T03971010  RH  008%=      5-min Rain = 0
KTA1 210000Z 21015KT 40/M01 A2974 RMK A01 T03961010  RH  008%=      5-min Rain = 0
KTA1 210001Z 21013G19KT 40/M01 A2974 RMK A01 T03971008  RH  008%=      5-min Rain = 0
KTA1 210002Z 22014KT 40/M00 A2974 RMK A01 T03971004  RH  008%=      5-min Rain = 0
KTA1 210003Z 23016KT 40/M00 A2974 RMK A01 T03981003  RH  008%=      5-min Rain = 0
KTA1 210004Z 23016KT 40/M01 A2974 RMK A01 T03971007  RH  008%=      5-min Rain = 0
KTA1 210005Z 22018KT 40/M01 A2974 RMK A01 T03951006  RH  008%=      5-min Rain = 0
KTA1 210006Z 21019KT 39/M01 A2974 RMK A01 T03941011  RH  008%=      5-min Rain = 0
KTA1 210007Z 21016G21KT 39/M01 A2974 RMK A01 T03941011  RH  008%=      5-min Rain = 0
KTA1 210008Z 20020KT 39/M01 A2974 RMK A01 T03941013  RH  008%=      5-min Rain = 0
KTA1 210009Z 20017G23KT 39/M01 A2974 RMK A01 T03941011  RH  008%=      5-min Rain = 0
KTA1 210010Z 21019KT 39/M01 A2974 RMK A01 T03941008  RH  008%=      5-min Rain = 0
KTA1 210011Z 21017G23KT 39/M01 A2974 RMK A01 T03941009  RH  008%=      5-min Rain = 0
KTA1 210012Z 22014KT 39/M01 A2974 RMK A01 T03941007  RH  008%=      5-min Rain = 0
KTA1 210013Z 23016KT 39/M01 A2974 RMK A01 T03941007  RH  008%=      5-min Rain = 0
KTA1 210014Z 23014G20KT 39/M01 A2974 RMK A01 T03931010  RH  008%=      5-min Rain = 0
KTA1 210015Z 22017KT 39/M01 A2974 RMK A01 T03931007  RH  008%=      5-min Rain = 0
KTA1 210016Z 22019KT 39/M01 A2974 RMK A01 T03931009  RH  008%=      5-min Rain = 0
KTA1 210017Z 22015KT 39/M01 A2974 RMK A01 T03931013  RH  008%=      5-min Rain = 0
KTA1 210018Z 21015G20KT 39/M01 A2974 RMK A01 T03921009  RH  008%=      5-min Rain = 0
KTA1 210019Z 22018G23KT 39/M01 A2974 RMK A01 T03921014  RH  008%=      5-min Rain = 0
KTA1 210020Z 22018G23KT 39/M02 A2974 RMK A01 T03921018  RH  008%=      5-min Rain = 0
KTA1 210021Z 21015KT 39/M02 A2974 RMK A01 T03921015  RH  008%=      5-min Rain = 0
KTA1 210022Z 21013KT 39/M02 A2974 RMK A01 T03921015  RH  008%=      5-min Rain = 0
KTA1 210023Z 21018KT 39/M01 A2974 RMK A01 T03921013  RH  008%=      5-min Rain = 0
KTA1 210024Z 21016KT 39/M01 A2974 RMK A01 T03921012  RH  008%=      5-min Rain = 0
KTA1 210025Z 21014KT 39/M01 A2974 RMK A01 T03911011  RH  008%=      5-min Rain = 0
KTA1 210026Z 22016KT 39/M01 A2974 RMK A01 T03911012  RH  008%=      5-min Rain = 0
KTA1 210027Z 22014KT 39/M01 A2974 RMK A01 T03911012  RH  008%=      5-min Rain = 0
KTA1 210028Z 22014KT 39/M01 A2974 RMK A01 T03901011  RH  008%=      5-min Rain = 0
KTA1 210029Z 21015G20KT 39/M01 A2974 RMK A01 T03911011  RH  008%=      5-min Rain = 0
KTA1 210030Z 21016KT 39/M01 A2974 RMK A01 T03901014  RH  008%=      5-min Rain = 0
KTA1 210031Z 22016KT 39/M01 A2974 RMK A01 T03901014  RH  008%=      5-min Rain = 0
KTA1 210032Z 21013KT 39/M02 A2975 RMK A01 T03891015  RH  008%=      5-min Rain = 0
KTA1 210033Z 21012G17KT 39/M01 A2975 RMK A01 T03891012  RH  008%=      5-min Rain = 0
KTA1 210034Z 21014KT 39/M01 A2975 RMK A01 T03891013  RH  008%=      5-min Rain = 0
KTA1 210035Z 21013KT 39/M01 A2975 RMK A01 T03891011  RH  008%=      5-min Rain = 0
KTA1 210036Z 21012KT 39/M01 A2975 RMK A01 T03891012  RH  008%=      5-min Rain = 0
KTA1 210037Z 21013KT 39/M01 A2975 RMK A01 T03881011  RH  008%=      5-min Rain = 0
KTA1 210038Z 21013KT 39/M01 A2975 RMK A01 T03881011  RH  008%=      5-min Rain = 0
KTA1 210039Z 21013KT 39/M01 A2975 RMK A01 T03881011  RH  008%=      5-min Rain = 0
KTA1 210040Z 21011G16KT 39/M01 A2975 RMK A01 T03881009  RH  008%=      5-min Rain = 0
KTA1 210041Z 21011KT 39/M01 A2975 RMK A01 T03871008  RH  008%=      5-min Rain = 0
KTA1 210042Z 21011KT 39/M01 A2975 RMK A01 T03871006  RH  009%=      5-min Rain = 0
KTA1 210043Z 21012KT 39/M01 A2975 RMK A01 T03871008  RH  008%=      5-min Rain = 0
KTA1 210044Z 21013KT 39/M01 A2975 RMK A01 T03871009  RH  008%=      5-min Rain = 0
KTA1 210045Z 21011KT 39/M01 A2975 RMK A01 T03861009  RH  008%=      5-min Rain = 0
KTA1 210046Z 21012G17KT 39/M01 A2975 RMK A01 T03861007  RH  008%=      5-min Rain = 0
KTA1 210047Z 21013KT 39/M01 A2975 RMK A01 T03861010  RH  008%=      5-min Rain = 0
KTA1 210048Z 22012KT 39/M01 A2975 RMK A01 T03861013  RH  008%=      5-min Rain = 0
KTA1 210049Z 21011KT 39/M01 A2975 RMK A01 T03851011  RH  008%=      5-min Rain = 0
KTA1 210050Z 21013KT 39/M01 A2975 RMK A01 T03851011  RH  008%=      5-min Rain = 0
KTA1 210051Z 21013KT 39/M01 A2975 RMK A01 T03851011  RH  008%=      5-min Rain = 0
KTA1 210052Z 21014KT 38/M01 A2975 RMK A01 T03841009  RH  008%=      5-min Rain = 0
KTA1 210053Z 22012KT 38/M01 A2975 RMK A01 T03841008  RH  009%=      5-min Rain = 0
KTA1 210054Z 21012KT 38/M01 A2975 RMK A01 T03831006  RH  009%=      5-min Rain = 0
KTA1 210055Z 22012KT 38/M01 A2975 RMK A01 T03831007  RH  009%=      5-min Rain = 0
KTA1 210056Z 21010KT 38/M01 A2975 RMK A01 T03821005  RH  009%=      5-min Rain = 0
KTA1 210057Z 22013KT 38/M01 A2975 RMK A01 T03821005  RH  009%=      5-min Rain = 0
KTA1 210058Z 21011KT 38/M01 A2975 RMK A01 T03811005  RH  009%=      5-min Rain = 0
KTA1 210059Z 21011KT 38/M00 A2975 RMK A01 T03811004  RH  009%=      5-min Rain = 0
KTA1 210100Z 21011KT 38/M00 A2975 RMK A01 T03801002  RH  009%=      5-min Rain = 0
KTA1 210101Z 22011KT 38/M00 A2975 RMK A01 T03801001  RH  009%=      5-min Rain = 0
KTA1 210102Z 22010KT 38/00 A2975 RMK A01 T03790000  RH  009%=      5-min Rain = 0
KTA1 210103Z 22010KT 38/00 A2975 RMK A01 T03790000  RH  009%=      5-min Rain = 0
KTA1 210104Z 22011KT 38/00 A2975 RMK A01 T03780000  RH  009%=      5-min Rain = 0
KTA1 210105Z 22012KT 38/M00 A2975 RMK A01 T03781003  RH  009%=      5-min Rain = 0
KTA1 210106Z 21011KT 38/M00 A2975 RMK A01 T03771002  RH  009%=      5-min Rain = 0
KTA1 210107Z 21011G16KT 38/M00 A2975 RMK A01 T03771002  RH  009%=      5-min Rain = 0
KTA1 210108Z 21011KT 38/M00 A2975 RMK A01 T03771003  RH  009%=      5-min Rain = 0
KTA1 210109Z 21011KT 38/M00 A2975 RMK A01 T03761004  RH  009%=      5-min Rain = 0
KTA1 210110Z 21011KT 38/M00 A2975 RMK A01 T03761002  RH  009%=      5-min Rain = 0
KTA1 210111Z 21011KT 38/M00 A2975 RMK A01 T03751003  RH  009%=      5-min Rain = 0
KTA1 210112Z 21011KT 37/M00 A2975 RMK A01 T03741003  RH  009%=      5-min Rain = 0
KTA1 210113Z 22011KT 37/M00 A2975 RMK A01 T03741004  RH  009%=      5-min Rain = 0
KTA1 210114Z 21011KT 37/M01 A2975 RMK A01 T03731005  RH  009%=      5-min Rain = 0
KTA1 210115Z 21010KT 37/M00 A2975 RMK A01 T03731004  RH  009%=      5-min Rain = 0
KTA1 210116Z 21009G14KT 37/M00 A2975 RMK A01 T03721001  RH  010%=      5-min Rain = 0
KTA1 210117Z 21011KT 37/M00 A2975 RMK A01 T03711002  RH  010%=      5-min Rain = 0
KTA1 210118Z 21010KT 37/M00 A2975 RMK A01 T03711002  RH  010%=      5-min Rain = 0
KTA1 210119Z 21010KT 37/M00 A2975 RMK A01 T03711001  RH  010%=      5-min Rain = 0
KTA1 210120Z 21010KT 37/00 A2975 RMK A01 T03700000  RH  010%=      5-min Rain = 0
KTA1 210121Z 21009KT 37/00 A2975 RMK A01 T03690000  RH  010%=      5-min Rain = 0
KTA1 210122Z 21008KT 37/00 A2975 RMK A01 T03680002  RH  010%=      5-min Rain = 0
KTA1 210123Z 21009KT 37/00 A2975 RMK A01 T03660002  RH  010%=      5-min Rain = 0
KTA1 210124Z 21009KT 37/00 A2975 RMK A01 T03660002  RH  010%=      5-min Rain = 0
KTA1 210125Z 21009KT 37/00 A2975 RMK A01 T03650001  RH  010%=      5-min Rain = 0
KTA1 210126Z 21009KT 36/00 A2975 RMK A01 T03640003  RH  010%=      5-min Rain = 0
KTA1 210127Z 21009KT 36/00 A2975 RMK A01 T03630003  RH  010%=      5-min Rain = 0
KTA1 210128Z 21010KT 36/00 A2975 RMK A01 T03620003  RH  010%=      5-min Rain = 0
KTA1 210129Z 21009KT 36/00 A2975 RMK A01 T03620003  RH  010%=      5-min Rain = 0
KTA1 210130Z 21010KT 36/00 A2975 RMK A01 T03610004  RH  010%=      5-min Rain = 0
KTA1 210131Z 21008KT 36/00 A2975 RMK A01 T03600004  RH  011%=      5-min Rain = 0
KTA1 210132Z 21008KT 36/01 A2975 RMK A01 T03590005  RH  011%=      5-min Rain = 0
KTA1 210133Z 22008KT 36/01 A2975 RMK A01 T03580006  RH  011%=      5-min Rain = 0
KTA1 210134Z 22008KT 36/01 A2975 RMK A01 T03570006  RH  011%=      5-min Rain = 0
KTA1 210135Z 22007KT 36/01 A2975 RMK A01 T03560007  RH  011%=      5-min Rain = 0
KTA1 210136Z 22007KT 35/01 A2975 RMK A01 T03540007  RH  011%=      5-min Rain = 0
KTA1 210137Z 22008KT 35/01 A2975 RMK A01 T03530008  RH  011%=      5-min Rain = 0
KTA1 210138Z 22008KT 35/01 A2976 RMK A01 T03520009  RH  011%=      5-min Rain = 0
KTA1 210139Z 22008KT 35/01 A2976 RMK A01 T03510009  RH  012%=      5-min Rain = 0
KTA1 210140Z 22008KT 35/01 A2976 RMK A01 T03500010  RH  012%=      5-min Rain = 0
KTA1 210141Z 22008KT 35/01 A2976 RMK A01 T03490010  RH  012%=      5-min Rain = 0
KTA1 210142Z 22008KT 35/01 A2976 RMK A01 T03480011  RH  012%=      5-min Rain = 0
KTA1 210143Z 22008KT 35/01 A2976 RMK A01 T03460012  RH  012%=      5-min Rain = 0
KTA1 210144Z 22009KT 35/01 A2976 RMK A01 T03450011  RH  012%=      5-min Rain = 0
KTA1 210145Z 22007KT 35/01 A2976 RMK A01 T03450012  RH  012%=      5-min Rain = 0
KTA1 210146Z 22008KT 34/01 A2976 RMK A01 T03440012  RH  012%=      5-min Rain = 0
KTA1 210147Z 21008KT 34/01 A2976 RMK A01 T03440012  RH  012%=      5-min Rain = 0
KTA1 210148Z 21007KT 34/01 A2976 RMK A01 T03440012  RH  012%=      5-min Rain = 0
KTA1 210149Z 21008KT 34/01 A2976 RMK A01 T03430012  RH  012%=      5-min Rain = 0
KTA1 210150Z 21008KT 34/01 A2976 RMK A01 T03420013  RH  012%=      5-min Rain = 0
KTA1 210151Z 21007KT 34/01 A2976 RMK A01 T03410013  RH  013%=      5-min Rain = 0
KTA1 210152Z 21008KT 34/01 A2976 RMK A01 T03400013  RH  013%=      5-min Rain = 0
KTA1 210153Z 22009KT 34/01 A2976 RMK A01 T03390013  RH  013%=      5-min Rain = 0
KTA1 210154Z 22008KT 34/01 A2976 RMK A01 T03380013  RH  013%=      5-min Rain = 0
KTA1 210155Z 22008KT 34/01 A2976 RMK A01 T03370012  RH  013%=      5-min Rain = 0
KTA1 210156Z 22008KT 34/01 A2976 RMK A01 T03370013  RH  013%=      5-min Rain = 0
KTA1 210157Z 21008KT 34/01 A2976 RMK A01 T03360013  RH  013%=      5-min Rain = 0
KTA1 210158Z 21009KT 34/01 A2976 RMK A01 T03350014  RH  013%=      5-min Rain = 0
KTA1 210159Z 22009KT 33/01 A2976 RMK A01 T03340013  RH  013%=      5-min Rain = 0
KTA1 210200Z 21008KT 33/01 A2976 RMK A01 T03340013  RH  013%=      5-min Rain = 0
KTA1 210201Z 21009KT 33/01 A2976 RMK A01 T03340013  RH  013%=      5-min Rain = 0
KTA1 210202Z 22007KT 33/01 A2976 RMK A01 T03330014  RH  013%=      5-min Rain = 0
KTA1 210203Z 22008KT 33/01 A2976 RMK A01 T03320014  RH  013%=      5-min Rain = 0
KTA1 210204Z 22008KT 33/01 A2976 RMK A01 T03310014  RH  013%=      5-min Rain = 0
KTA1 210205Z 22007KT 33/02 A2976 RMK A01 T03300015  RH  014%=      5-min Rain = 0
KTA1 210206Z 22008KT 33/02 A2976 RMK A01 T03290015  RH  014%=      5-min Rain = 0
KTA1 210207Z 22007KT 33/02 A2976 RMK A01 T03280017  RH  014%=      5-min Rain = 0
KTA1 210208Z 22008KT 33/02 A2976 RMK A01 T03250017  RH  014%=      5-min Rain = 0
KTA1 210209Z 22008KT 32/02 A2976 RMK A01 T03240018  RH  014%=      5-min Rain = 0
KTA1 210210Z 22007KT 32/02 A2976 RMK A01 T03220018  RH  014%=      5-min Rain = 0
KTA1 210211Z 23007KT 32/02 A2976 RMK A01 T03200018  RH  015%=      5-min Rain = 0
KTA1 210212Z 23007KT 32/02 A2976 RMK A01 T03180019  RH  015%=      5-min Rain = 0
KTA1 210213Z 23007KT 32/02 A2976 RMK A01 T03160020  RH  015%=      5-min Rain = 0
KTA1 210214Z 24007KT 31/02 A2977 RMK A01 T03140022  RH  016%=      5-min Rain = 0
KTA1 210215Z 24007KT 31/03 A2977 RMK A01 T03120027  RH  016%=      5-min Rain = 0
KTA1 210216Z 24007KT 31/03 A2977 RMK A01 T03080033  RH  017%=      5-min Rain = 0
KTA1 210217Z 26007KT 31/03 A2977 RMK A01 T03050033  RH  018%=      5-min Rain = 0
KTA1 210218Z 27006KT 30/03 A2977 RMK A01 T03030030  RH  018%=      5-min Rain = 0
KTA1 210219Z 26007KT 30/03 A2977 RMK A01 T03000029  RH  018%=      5-min Rain = 0
KTA1 210220Z 28006KT 30/03 A2977 RMK A01 T02980029  RH  018%=      5-min Rain = 0
KTA1 210221Z 26007KT 30/03 A2977 RMK A01 T02970030  RH  018%=      5-min Rain = 0
KTA1 210222Z 25007KT 30/03 A2977 RMK A01 T02960030  RH  018%=      5-min Rain = 0
KTA1 210223Z 24008KT 30/03 A2977 RMK A01 T02960030  RH  018%=      5-min Rain = 0
KTA1 210224Z 24008KT 30/03 A2977 RMK A01 T02960030  RH  018%=      5-min Rain = 0
KTA1 210225Z 23009KT 30/03 A2977 RMK A01 T02960030  RH  018%=      5-min Rain = 0
KTA1 210226Z 23009KT 30/03 A2977 RMK A01 T02980029  RH  018%=      5-min Rain = 0
KTA1 210227Z 23009KT 30/03 A2977 RMK A01 T03010027  RH  017%=      5-min Rain = 0
KTA1 210228Z 23009KT 30/03 A2977 RMK A01 T03030025  RH  017%=      5-min Rain = 0
KTA1 210229Z 24009KT 30/02 A2977 RMK A01 T03040024  RH  017%=      5-min Rain = 0
KTA1 210230Z 24008KT 31/03 A2977 RMK A01 T03050025  RH  017%=      5-min Rain = 0
KTA1 210231Z 24008KT 31/03 A2977 RMK A01 T03050029  RH  017%=      5-min Rain = 0
KTA1 210232Z 24008KT 31/03 A2977 RMK A01 T03050030  RH  017%=      5-min Rain = 0
KTA1 210233Z 24008KT 31/03 A2977 RMK A01 T03050029  RH  017%=      5-min Rain = 0
KTA1 210234Z 24009KT 30/03 A2977 RMK A01 T03040028  RH  017%=      5-min Rain = 0
KTA1 210235Z 24009KT 30/03 A2977 RMK A01 T03040027  RH  017%=      5-min Rain = 0
KTA1 210236Z 24009KT 30/03 A2977 RMK A01 T03040027  RH  017%=      5-min Rain = 0
KTA1 210237Z 24009KT 30/03 A2977 RMK A01 T03040027  RH  017%=      5-min Rain = 0
KTA1 210238Z 24008KT 30/03 A2977 RMK A01 T03040026  RH  017%=      5-min Rain = 0
KTA1 210239Z 24008KT 30/03 A2977 RMK A01 T03040027  RH  017%=      5-min Rain = 0
KTA1 210240Z 24007KT 30/03 A2977 RMK A01 T03040028  RH  017%=      5-min Rain = 0
KTA1 210241Z 24008KT 30/03 A2977 RMK A01 T03040028  RH  017%=      5-min Rain = 0
KTA1 210242Z 24008KT 30/03 A2977 RMK A01 T03030029  RH  017%=      5-min Rain = 0
KTA1 210243Z 24007KT 30/03 A2977 RMK A01 T03020029  RH  017%=      5-min Rain = 0
KTA1 210244Z 24008KT 30/03 A2977 RMK A01 T03020029  RH  018%=      5-min Rain = 0
KTA1 210245Z 24007KT 30/03 A2977 RMK A01 T03010031  RH  018%=      5-min Rain = 0
KTA1 210246Z 25007KT 30/03 A2977 RMK A01 T02990031  RH  018%=      5-min Rain = 0
KTA1 210247Z 24007KT 30/03 A2977 RMK A01 T02980032  RH  018%=      5-min Rain = 0
KTA1 210248Z 24007KT 30/03 A2977 RMK A01 T02960032  RH  019%=      5-min Rain = 0
KTA1 210249Z 24006KT 30/03 A2977 RMK A01 T02950032  RH  019%=      5-min Rain = 0
KTA1 210250Z 24007KT 29/03 A2977 RMK A01 T02930032  RH  019%=      5-min Rain = 0
KTA1 210251Z 24007KT 29/03 A2977 RMK A01 T02920033  RH  019%=      5-min Rain = 0
KTA1 210252Z 24007KT 29/03 A2977 RMK A01 T02910033  RH  019%=      5-min Rain = 0
KTA1 210253Z 25007KT 29/03 A2977 RMK A01 T02900033  RH  019%=      5-min Rain = 0
KTA1 210254Z 25007KT 29/03 A2977 RMK A01 T02890033  RH  020%=      5-min Rain = 0
KTA1 210255Z 25007KT 29/03 A2977 RMK A01 T02880034  RH  020%=      5-min Rain = 0
KTA1 210256Z 25007KT 29/03 A2978 RMK A01 T02860033  RH  020%=      5-min Rain = 0
KTA1 210257Z 25006KT 29/03 A2978 RMK A01 T02850033  RH  020%=      5-min Rain = 0
KTA1 210258Z 24006KT 29/03 A2978 RMK A01 T02850033  RH  020%=      5-min Rain = 0
KTA1 210259Z 24006KT 28/04 A2978 RMK A01 T02830035  RH  020%=      5-min Rain = 0
KTA1 210300Z 24006KT 28/04 A2978 RMK A01 T02820035  RH  021%=      5-min Rain = 0
KTA1 210301Z 24006KT 28/03 A2978 RMK A01 T02810034  RH  021%=      5-min Rain = 0
KTA1 210302Z 24006KT 28/03 A2978 RMK A01 T02800033  RH  021%=      5-min Rain = 0
KTA1 210303Z 24006KT 28/03 A2978 RMK A01 T02790033  RH  021%=      5-min Rain = 0
KTA1 210304Z 24006KT 28/03 A2978 RMK A01 T02770032  RH  021%=      5-min Rain = 0
KTA1 210305Z 24006KT 28/03 A2978 RMK A01 T02760031  RH  021%=      5-min Rain = 0
KTA1 210306Z 25006KT 28/03 A2978 RMK A01 T02750030  RH  021%=      5-min Rain = 0
KTA1 210307Z 24006KT 27/03 A2978 RMK A01 T02740032  RH  021%=      5-min Rain = 0
KTA1 210308Z 24006KT 27/03 A2978 RMK A01 T02720032  RH  021%=      5-min Rain = 0
KTA1 210309Z 24006KT 27/04 A2978 RMK A01 T02710035  RH  022%=      5-min Rain = 0
KTA1 210310Z 24006KT 27/04 A2978 RMK A01 T02700036  RH  022%=      5-min Rain = 0
KTA1 210311Z 24006KT 27/04 A2978 RMK A01 T02690038  RH  023%=      5-min Rain = 0
KTA1 210312Z 24006KT 27/04 A2978 RMK A01 T02680040  RH  023%=      5-min Rain = 0
KTA1 210313Z 24006KT 27/04 A2978 RMK A01 T02670039  RH  023%=      5-min Rain = 0
KTA1 210314Z 24006KT 27/04 A2978 RMK A01 T02660037  RH  023%=      5-min Rain = 0
KTA1 210315Z 23006KT 27/03 A2978 RMK A01 T02660034  RH  022%=      5-min Rain = 0
KTA1 210316Z 23006KT 27/03 A2978 RMK A01 T02660030  RH  022%=      5-min Rain = 0
KTA1 210317Z 23007KT 27/03 A2978 RMK A01 T02660028  RH  021%=      5-min Rain = 0
KTA1 210318Z 22006KT 27/03 A2978 RMK A01 T02660027  RH  021%=      5-min Rain = 0
KTA1 210319Z 20005KT 26/03 A2978 RMK A01 T02640028  RH  022%=      5-min Rain = 0
KTA1 210320Z 20004KT 26/03 A2978 RMK A01 T02620028  RH  022%=      5-min Rain = 0
KTA1 210321Z 20006KT 26/03 A2978 RMK A01 T02610029  RH  022%=      5-min Rain = 0
KTA1 210322Z 22006KT 26/03 A2978 RMK A01 T02610030  RH  022%=      5-min Rain = 0
KTA1 210323Z 23005KT 26/03 A2978 RMK A01 T02610031  RH  023%=      5-min Rain = 0
KTA1 210324Z 23006KT 26/03 A2978 RMK A01 T02610032  RH  023%=      5-min Rain = 0
KTA1 210325Z 23006KT 26/03 A2978 RMK A01 T02600031  RH  023%=      5-min Rain = 0
KTA1 210326Z 23005KT 26/03 A2978 RMK A01 T02610031  RH  023%=      5-min Rain = 0
KTA1 210327Z 22005KT 26/03 A2978 RMK A01 T02600031  RH  023%=      5-min Rain = 0
KTA1 210328Z 22005KT 26/03 A2978 RMK A01 T02600030  RH  023%=      5-min Rain = 0
KTA1 210329Z 22005KT 26/03 A2978 RMK A01 T02600030  RH  022%=      5-min Rain = 0
KTA1 210330Z 22005KT 26/03 A2978 RMK A01 T02610031  RH  023%=      5-min Rain = 0
KTA1 210331Z 22005KT 26/03 A2978 RMK A01 T02610032  RH  023%=      5-min Rain = 0
KTA1 210332Z 22005KT 26/04 A2978 RMK A01 T02600035  RH  023%=      5-min Rain = 0
KTA1 210333Z 22005KT 26/04 A2979 RMK A01 T02600039  RH  024%=      5-min Rain = 0
KTA1 210334Z 22005KT 26/04 A2979 RMK A01 T02590039  RH  024%=      5-min Rain = 0
KTA1 210335Z 22005KT 26/04 A2979 RMK A01 T02590040  RH  024%=      5-min Rain = 0
KTA1 210336Z 22006KT 26/04 A2979 RMK A01 T02590039  RH  024%=      5-min Rain = 0
KTA1 210337Z 22006KT 26/04 A2979 RMK A01 T02580038  RH  024%=      5-min Rain = 0
KTA1 210338Z 22006KT 26/04 A2979 RMK A01 T02580038  RH  024%=      5-min Rain = 0
KTA1 210339Z 22006KT 26/04 A2979 RMK A01 T02570037  RH  024%=      5-min Rain = 0
KTA1 210340Z 22006KT 26/04 A2979 RMK A01 T02560038  RH  024%=      5-min Rain = 0
KTA1 210341Z 22006KT 26/04 A2979 RMK A01 T02560039  RH  025%=      5-min Rain = 0
KTA1 210342Z 22006KT 26/04 A2979 RMK A01 T02550039  RH  025%=      5-min Rain = 0
KTA1 210343Z 22005KT 26/04 A2979 RMK A01 T02550040  RH  025%=      5-min Rain = 0
KTA1 210344Z 23006KT 25/04 A2979 RMK A01 T02540042  RH  025%=      5-min Rain = 0
KTA1 210345Z 22006KT 25/04 A2979 RMK A01 T02540042  RH  025%=      5-min Rain = 0
KTA1 210346Z 22006KT 25/04 A2979 RMK A01 T02540044  RH  026%=      5-min Rain = 0
KTA1 210347Z 22006KT 25/05 A2979 RMK A01 T02540046  RH  026%=      5-min Rain = 0
KTA1 210348Z 21006KT 25/05 A2979 RMK A01 T02540046  RH  026%=      5-min Rain = 0
KTA1 210349Z 21006KT 26/04 A2979 RMK A01 T02550042  RH  025%=      5-min Rain = 0
KTA1 210350Z 20006KT 26/03 A298 RMK A01 T02550034  RH  024%=      5-min Rain = 0
KTA1 210351Z 19006KT 26/03 A298 RMK A01 T02550031  RH  023%=      5-min Rain = 0
KTA1 210352Z 15009KT 25/04 A298 RMK A01 T02530035  RH  024%=      5-min Rain = 0
KTA1 210353Z 14011KT 25/04 A298 RMK A01 T02500037  RH  025%=      5-min Rain = 0
KTA1 210354Z 15008KT 25/04 A298 RMK A01 T02500037  RH  025%=      5-min Rain = 0
KTA1 210355Z 15012KT 25/03 A298 RMK A01 T02510034  RH  024%=      5-min Rain = 0
KTA1 210356Z 15011KT 26/03 A2981 RMK A01 T02560027  RH  023%=      5-min Rain = 0
KTA1 210357Z 15013KT 26/03 A2981 RMK A01 T02610027  RH  022%=      5-min Rain = 0
KTA1 210358Z 17013KT 27/02 A2981 RMK A01 T02650024  RH  021%=      5-min Rain = 0
KTA1 210359Z 17009KT 27/02 A2981 RMK A01 T02700020  RH  020%=      5-min Rain = 0
KTA1 210400Z 17009KT 28/02 A2981 RMK A01 T02750021  RH  019%=      5-min Rain = 0
KTA1 210401Z 18009KT 28/02 A2981 RMK A01 T02780023  RH  019%=      5-min Rain = 0
KTA1 210402Z 19008KT 28/03 A2981 RMK A01 T02810028  RH  020%=      5-min Rain = 0
KTA1 210403Z 18009KT 28/03 A2981 RMK A01 T02820033  RH  020%=      5-min Rain = 0
KTA1 210404Z 19009KT 29/04 A2981 RMK A01 T02860042  RH  021%=      5-min Rain = 0
KTA1 210405Z 19008KT 29/05 A2981 RMK A01 T02870048  RH  022%=      5-min Rain = 0
KTA1 210406Z 18008KT 29/05 A2981 RMK A01 T02880054  RH  023%=      5-min Rain = 0
KTA1 210407Z 18009KT 29/05 A2981 RMK A01 T02880054  RH  023%=      5-min Rain = 0
KTA1 210408Z 18009KT 29/06 A2981 RMK A01 T02870056  RH  023%=      5-min Rain = 0
KTA1 210409Z 19009KT 29/06 A2981 RMK A01 T02860063  RH  024%=      5-min Rain = 0
KTA1 210410Z 19008KT 29/07 A2981 RMK A01 T02860068  RH  025%=      5-min Rain = 0
KTA1 210411Z 19008KT 29/07 A2981 RMK A01 T02850073  RH  026%=      5-min Rain = 0
KTA1 210412Z 18008KT 29/08 A2981 RMK A01 T02850078  RH  027%=      5-min Rain = 0
KTA1 210413Z 19009KT 29/08 A2981 RMK A01 T02850083  RH  028%=      5-min Rain = 0
KTA1 210414Z 19009KT 29/09 A2981 RMK A01 T02850091  RH  030%=      5-min Rain = 0
KTA1 210415Z 19009KT 29/10 A2981 RMK A01 T02850103  RH  032%=      5-min Rain = 0
KTA1 210416Z 20010KT 29/12 A2981 RMK A01 T02870117  RH  035%=      5-min Rain = 0
KTA1 210417Z 19009KT 29/13 A2981 RMK A01 T02900125  RH  036%=      5-min Rain = 0
KTA1 210418Z 20008KT 29/13 A2981 RMK A01 T02930126  RH  036%=      5-min Rain = 0
KTA1 210419Z 20008KT 29/13 A2981 RMK A01 T02930127  RH  036%=      5-min Rain = 0
KTA1 210420Z 20007KT 29/13 A2981 RMK A01 T02930127  RH  036%=      5-min Rain = 0
KTA1 210421Z 21004KT 29/12 A2981 RMK A01 T02920122  RH  035%=      5-min Rain = 0
KTA1 210422Z 22005KT 29/11 A2982 RMK A01 T02900106  RH  032%=      5-min Rain = 0
KTA1 210423Z 22005KT 29/10 A2982 RMK A01 T02870104  RH  032%=      5-min Rain = 0
KTA1 210424Z 22005KT 28/11 A2982 RMK A01 T02840105  RH  033%=      5-min Rain = 0
KTA1 210425Z 23006KT 28/11 A2982 RMK A01 T02820107  RH  034%=      5-min Rain = 0
KTA1 210426Z 23006KT 28/11 A2982 RMK A01 T02800110  RH  035%=      5-min Rain = 0
KTA1 210427Z 23006KT 28/11 A2982 RMK A01 T02790111  RH  035%=      5-min Rain = 0
KTA1 210428Z 22006KT 28/11 A2982 RMK A01 T02790113  RH  036%=      5-min Rain = 0
KTA1 210429Z 22007KT 28/12 A2982 RMK A01 T02780116  RH  037%=      5-min Rain = 0
KTA1 210430Z 22007KT 28/12 A2982 RMK A01 T02780117  RH  037%=      5-min Rain = 0
KTA1 210431Z 22007KT 28/12 A2982 RMK A01 T02780119  RH  037%=      5-min Rain = 0
KTA1 210432Z 23006KT 28/12 A2982 RMK A01 T02780120  RH  038%=      5-min Rain = 0
KTA1 210433Z 23007KT 28/12 A2982 RMK A01 T02770121  RH  038%=      5-min Rain = 0
KTA1 210434Z 22008KT 28/12 A2982 RMK A01 T02770121  RH  038%=      5-min Rain = 0
KTA1 210435Z 22008KT 28/12 A2982 RMK A01 T02770124  RH  039%=      5-min Rain = 0
KTA1 210436Z 22007KT 28/13 A2982 RMK A01 T02770126  RH  039%=      5-min Rain = 0
KTA1 210437Z 21008KT 28/13 A2982 RMK A01 T02780128  RH  039%=      5-min Rain = 0
KTA1 210438Z 21007KT 28/13 A2982 RMK A01 T02790127  RH  039%=      5-min Rain = 0
KTA1 210439Z 20008KT 28/13 A2982 RMK A01 T02790128  RH  039%=      5-min Rain = 0
KTA1 210440Z 21008KT 28/13 A2982 RMK A01 T02790132  RH  040%=      5-min Rain = 0
KTA1 210441Z 20008KT 28/13 A2982 RMK A01 T02800134  RH  041%=      5-min Rain = 0
KTA1 210442Z 20008KT 28/13 A2982 RMK A01 T02810134  RH  040%=      5-min Rain = 0
KTA1 210443Z 20008KT 28/14 A2982 RMK A01 T02820135  RH  041%=      5-min Rain = 0
KTA1 210444Z 20009KT 28/14 A2982 RMK A01 T02820137  RH  041%=      5-min Rain = 0
KTA1 210445Z 21009KT 28/14 A2982 RMK A01 T02830137  RH  041%=      5-min Rain = 0
KTA1 210446Z 20009KT 28/14 A2982 RMK A01 T02830137  RH  041%=      5-min Rain = 0
KTA1 210447Z 20009KT 28/14 A2983 RMK A01 T02840139  RH  041%=      5-min Rain = 0
KTA1 210448Z 20009KT 28/14 A2983 RMK A01 T02840139  RH  041%=      5-min Rain = 0
KTA1 210449Z 20009KT 28/14 A2983 RMK A01 T02830138  RH  041%=      5-min Rain = 0
KTA1 210450Z 20010KT 28/14 A2983 RMK A01 T02830139  RH  041%=      5-min Rain = 0
KTA1 210451Z 20010KT 28/14 A2983 RMK A01 T02830142  RH  042%=      5-min Rain = 0
KTA1 210452Z 19009KT 28/15 A2983 RMK A01 T02830145  RH  043%=      5-min Rain = 0
KTA1 210453Z 19010KT 28/15 A2983 RMK A01 T02840149  RH  044%=      5-min Rain = 0
KTA1 210454Z 19009KT 29/15 A2983 RMK A01 T02850151  RH  044%=      5-min Rain = 0
KTA1 210455Z 19011KT 29/16 A2983 RMK A01 T02860155  RH  045%=      5-min Rain = 0
KTA1 210456Z 19012G17KT 29/16 A2983 RMK A01 T02890160  RH  046%=      5-min Rain = 0
KTA1 210457Z 19010KT 29/16 A2983 RMK A01 T02920161  RH  045%=      5-min Rain = 0
KTA1 210458Z 19011KT 29/16 A2983 RMK A01 T02930161  RH  045%=      5-min Rain = 0
KTA1 210459Z 19011KT 29/16 A2983 RMK A01 T02930161  RH  045%=      5-min Rain = 0

Page generated in 0.0823 seconds.